Observation data for Castolon 1NW BBNP on 08/12/2019      Previous  Date       Current Mesonet Observations  Soil Data  Daily Summary Page  Observations in Plain Language
KCA2 120500Z 15007KT 33/15 A2992 RMK A01 T03300148  RH  033%=      5-min Rain = 0
KCA2 120501Z 15006KT 33/15 A2992 RMK A01 T03300148  RH  033%=      5-min Rain = 0
KCA2 120502Z 15007KT 33/15 A2992 RMK A01 T03300147  RH  033%=      5-min Rain = 0
KCA2 120503Z 14007KT 33/15 A2992 RMK A01 T03310146  RH  033%=      5-min Rain = 0
KCA2 120504Z 15007KT 33/15 A2992 RMK A01 T03310146  RH  033%=      5-min Rain = 0
KCA2 120505Z 15007KT 33/15 A2992 RMK A01 T03310146  RH  033%=      5-min Rain = 0
KCA2 120506Z 15008KT 33/15 A2992 RMK A01 T03310146  RH  033%=      5-min Rain = 0
KCA2 120507Z 15009KT 33/14 A2992 RMK A01 T03310144  RH  032%=      5-min Rain = 0
KCA2 120508Z 16009KT 33/14 A2992 RMK A01 T03320144  RH  032%=      5-min Rain = 0
KCA2 120509Z 15007KT 33/14 A2991 RMK A01 T03330144  RH  032%=      5-min Rain = 0
KCA2 120510Z 14008KT 33/14 A2991 RMK A01 T03330144  RH  032%=      5-min Rain = 0
KCA2 120511Z 14007KT 33/14 A2991 RMK A01 T03340144  RH  032%=      5-min Rain = 0
KCA2 120512Z 14007KT 33/14 A2991 RMK A01 T03330144  RH  032%=      5-min Rain = 0
KCA2 120513Z 14007KT 33/14 A2991 RMK A01 T03320144  RH  032%=      5-min Rain = 0
KCA2 120514Z 14006KT 33/14 A2991 RMK A01 T03320144  RH  032%=      5-min Rain = 0
KCA2 120515Z 14008KT 33/14 A2991 RMK A01 T03310144  RH  032%=      5-min Rain = 0
KCA2 120516Z 14008KT 33/14 A2991 RMK A01 T03310144  RH  032%=      5-min Rain = 0
KCA2 120517Z 14007KT 33/14 A2991 RMK A01 T03320143  RH  032%=      5-min Rain = 0
KCA2 120518Z 14006KT 33/14 A2991 RMK A01 T03320143  RH  032%=      5-min Rain = 0
KCA2 120519Z 13007KT 33/14 A2991 RMK A01 T03320144  RH  032%=      5-min Rain = 0
KCA2 120520Z 13007KT 33/14 A2991 RMK A01 T03320144  RH  032%=      5-min Rain = 0
KCA2 120521Z 13006KT 33/14 A2991 RMK A01 T03310144  RH  032%=      5-min Rain = 0
KCA2 120522Z 14007KT 33/14 A2991 RMK A01 T03310144  RH  032%=      5-min Rain = 0
KCA2 120523Z 13007KT 33/14 A2992 RMK A01 T03310144  RH  032%=      5-min Rain = 0
KCA2 120524Z 14007KT 33/14 A2992 RMK A01 T03310144  RH  032%=      5-min Rain = 0
KCA2 120525Z 14006KT 33/14 A2992 RMK A01 T03310144  RH  032%=      5-min Rain = 0
KCA2 120526Z 13007KT 33/14 A2992 RMK A01 T03300144  RH  033%=      5-min Rain = 0
KCA2 120527Z 14007KT 33/14 A2992 RMK A01 T03300144  RH  033%=      5-min Rain = 0
KCA2 120528Z 14006KT 33/14 A2992 RMK A01 T03290144  RH  033%=      5-min Rain = 0
KCA2 120529Z 14007KT 33/14 A2992 RMK A01 T03290144  RH  033%=      5-min Rain = 0
KCA2 120530Z 14006KT 33/14 A2992 RMK A01 T03280144  RH  033%=      5-min Rain = 0
KCA2 120531Z 14006KT 33/14 A2992 RMK A01 T03280144  RH  033%=      5-min Rain = 0
KCA2 120532Z 13006KT 33/14 A2992 RMK A01 T03280144  RH  033%=      5-min Rain = 0
KCA2 120533Z 13006KT 33/15 A2992 RMK A01 T03280145  RH  033%=      5-min Rain = 0
KCA2 120534Z 13006KT 33/14 A2992 RMK A01 T03270144  RH  033%=      5-min Rain = 0
KCA2 120535Z 14006KT 33/14 A2992 RMK A01 T03270144  RH  033%=      5-min Rain = 0
KCA2 120536Z 14006KT 33/14 A2992 RMK A01 T03270144  RH  033%=      5-min Rain = 0
KCA2 120537Z 14006KT 33/15 A2992 RMK A01 T03270145  RH  033%=      5-min Rain = 0
KCA2 120538Z 14006KT 33/14 A2992 RMK A01 T03260144  RH  033%=      5-min Rain = 0
KCA2 120539Z 14006KT 33/15 A2992 RMK A01 T03260145  RH  033%=      5-min Rain = 0
KCA2 120540Z 14006KT 33/15 A2992 RMK A01 T03260145  RH  034%=      5-min Rain = 0
KCA2 120541Z 14006KT 33/14 A2992 RMK A01 T03250144  RH  034%=      5-min Rain = 0
KCA2 120542Z 15006KT 33/15 A2992 RMK A01 T03250145  RH  034%=      5-min Rain = 0
KCA2 120543Z 15006KT 33/15 A2992 RMK A01 T03250145  RH  034%=      5-min Rain = 0
KCA2 120544Z 14006KT 33/15 A2992 RMK A01 T03250145  RH  034%=      5-min Rain = 0
KCA2 120545Z 14005KT 33/15 A2992 RMK A01 T03250145  RH  034%=      5-min Rain = 0
KCA2 120546Z 14006KT 33/15 A2992 RMK A01 T03250145  RH  034%=      5-min Rain = 0
KCA2 120547Z 14006KT 33/15 A2992 RMK A01 T03250145  RH  034%=      5-min Rain = 0
KCA2 120548Z 13005KT 33/15 A2992 RMK A01 T03250145  RH  034%=      5-min Rain = 0
KCA2 120549Z 13006KT 33/15 A2992 RMK A01 T03250145  RH  034%=      5-min Rain = 0
KCA2 120550Z 13006KT 33/15 A2992 RMK A01 T03250145  RH  034%=      5-min Rain = 0
KCA2 120551Z 13006KT 32/15 A2992 RMK A01 T03240145  RH  034%=      5-min Rain = 0
KCA2 120552Z 13006KT 32/15 A2992 RMK A01 T03240145  RH  034%=      5-min Rain = 0
KCA2 120553Z 14006KT 32/15 A2992 RMK A01 T03230145  RH  034%=      5-min Rain = 0
KCA2 120554Z 14006KT 32/15 A2992 RMK A01 T03230145  RH  034%=      5-min Rain = 0
KCA2 120555Z 14006KT 32/15 A2992 RMK A01 T03230145  RH  034%=      5-min Rain = 0
KCA2 120556Z 14007KT 32/15 A2992 RMK A01 T03230145  RH  034%=      5-min Rain = 0
KCA2 120557Z 14006KT 32/15 A2992 RMK A01 T03220145  RH  034%=      5-min Rain = 0
KCA2 120558Z 14006KT 32/15 A2992 RMK A01 T03230145  RH  034%=      5-min Rain = 0
KCA2 120559Z 14006KT 32/15 A2992 RMK A01 T03230145  RH  034%=      5-min Rain = 0
KCA2 120600Z 14006KT 32/15 A2992 RMK A01 T03220145  RH  034%=      5-min Rain = 0
KCA2 120601Z 14006KT 32/15 A2992 RMK A01 T03220145  RH  034%=      5-min Rain = 0
KCA2 120602Z 13006KT 32/15 A2992 RMK A01 T03220145  RH  034%=      5-min Rain = 0
KCA2 120603Z 14006KT 32/15 A2992 RMK A01 T03230145  RH  034%=      5-min Rain = 0
KCA2 120604Z 13007KT 32/15 A2992 RMK A01 T03220145  RH  034%=      5-min Rain = 0
KCA2 120605Z 13007KT 32/15 A2992 RMK A01 T03230145  RH  034%=      5-min Rain = 0
KCA2 120606Z 14006KT 32/15 A2992 RMK A01 T03220145  RH  034%=      5-min Rain = 0
KCA2 120607Z 13007KT 32/15 A2992 RMK A01 T03220145  RH  034%=      5-min Rain = 0
KCA2 120608Z 13006KT 32/15 A2992 RMK A01 T03220145  RH  034%=      5-min Rain = 0
KCA2 120609Z 14007KT 32/15 A2992 RMK A01 T03220146  RH  034%=      5-min Rain = 0
KCA2 120610Z 14007KT 32/15 A2992 RMK A01 T03220145  RH  034%=      5-min Rain = 0
KCA2 120611Z 14006KT 32/15 A2992 RMK A01 T03220145  RH  034%=      5-min Rain = 0
KCA2 120612Z 14006KT 32/15 A2992 RMK A01 T03220145  RH  034%=      5-min Rain = 0
KCA2 120613Z 15007KT 32/15 A2992 RMK A01 T03220145  RH  034%=      5-min Rain = 0
KCA2 120614Z 15007KT 32/15 A2992 RMK A01 T03220145  RH  034%=      5-min Rain = 0
KCA2 120615Z 14006KT 32/15 A2992 RMK A01 T03220145  RH  034%=      5-min Rain = 0
KCA2 120616Z 14007KT 32/15 A2992 RMK A01 T03220145  RH  034%=      5-min Rain = 0
KCA2 120617Z 14007KT 32/15 A2992 RMK A01 T03220145  RH  034%=      5-min Rain = 0
KCA2 120618Z 14006KT 32/15 A2992 RMK A01 T03220145  RH  034%=      5-min Rain = 0
KCA2 120619Z 14006KT 32/15 A2992 RMK A01 T03220145  RH  034%=      5-min Rain = 0
KCA2 120620Z 14006KT 32/15 A2992 RMK A01 T03220145  RH  034%=      5-min Rain = 0
KCA2 120621Z 14007KT 32/15 A2992 RMK A01 T03210145  RH  034%=      5-min Rain = 0
KCA2 120622Z 14006KT 32/15 A2993 RMK A01 T03220145  RH  034%=      5-min Rain = 0
KCA2 120623Z 14007KT 32/15 A2993 RMK A01 T03210145  RH  034%=      5-min Rain = 0
KCA2 120624Z 14006KT 32/15 A2993 RMK A01 T03210145  RH  034%=      5-min Rain = 0
KCA2 120625Z 14005KT 32/15 A2993 RMK A01 T03210145  RH  035%=      5-min Rain = 0
KCA2 120626Z 13005KT 32/15 A2993 RMK A01 T03200145  RH  035%=      5-min Rain = 0
KCA2 120627Z 13005KT 32/15 A2993 RMK A01 T03200145  RH  035%=      5-min Rain = 0
KCA2 120628Z 13006KT 32/15 A2993 RMK A01 T03190145  RH  035%=      5-min Rain = 0
KCA2 120629Z 14006KT 32/15 A2993 RMK A01 T03190145  RH  035%=      5-min Rain = 0
KCA2 120630Z 14007KT 32/15 A2993 RMK A01 T03190145  RH  035%=      5-min Rain = 0
KCA2 120631Z 14006KT 32/15 A2993 RMK A01 T03180145  RH  035%=      5-min Rain = 0
KCA2 120632Z 14006KT 32/15 A2993 RMK A01 T03180145  RH  035%=      5-min Rain = 0
KCA2 120633Z 13006KT 32/15 A2993 RMK A01 T03180145  RH  035%=      5-min Rain = 0
KCA2 120634Z 13005KT 32/15 A2993 RMK A01 T03180145  RH  035%=      5-min Rain = 0
KCA2 120635Z 13006KT 32/15 A2992 RMK A01 T03180146  RH  035%=      5-min Rain = 0
KCA2 120636Z 13007KT 32/15 A2992 RMK A01 T03170145  RH  035%=      5-min Rain = 0
KCA2 120637Z 13006KT 32/15 A2992 RMK A01 T03180146  RH  035%=      5-min Rain = 0
KCA2 120638Z 13006KT 32/15 A2992 RMK A01 T03170146  RH  035%=      5-min Rain = 0
KCA2 120639Z 13007KT 32/15 A2992 RMK A01 T03170146  RH  035%=      5-min Rain = 0
KCA2 120640Z 13007KT 32/15 A2992 RMK A01 T03170146  RH  035%=      5-min Rain = 0
KCA2 120641Z 13007KT 32/15 A2992 RMK A01 T03160146  RH  036%=      5-min Rain = 0
KCA2 120642Z 13007KT 32/15 A2992 RMK A01 T03170146  RH  036%=      5-min Rain = 0
KCA2 120643Z 13007KT 32/15 A2992 RMK A01 T03160146  RH  036%=      5-min Rain = 0
KCA2 120644Z 13007KT 32/15 A2992 RMK A01 T03160146  RH  036%=      5-min Rain = 0
KCA2 120645Z 13007KT 32/15 A2992 RMK A01 T03160146  RH  036%=      5-min Rain = 0
KCA2 120646Z 13007KT 32/15 A2992 RMK A01 T03160146  RH  036%=      5-min Rain = 0
KCA2 120647Z 13007KT 32/15 A2992 RMK A01 T03160146  RH  036%=      5-min Rain = 0
KCA2 120648Z 13007KT 32/15 A2992 RMK A01 T03160146  RH  036%=      5-min Rain = 0
KCA2 120649Z 13007KT 32/15 A2992 RMK A01 T03160146  RH  036%=      5-min Rain = 0
KCA2 120650Z 13007KT 32/15 A2992 RMK A01 T03160146  RH  036%=      5-min Rain = 0
KCA2 120651Z 13007KT 32/15 A2992 RMK A01 T03170146  RH  036%=      5-min Rain = 0
KCA2 120652Z 13008KT 32/15 A2992 RMK A01 T03170146  RH  036%=      5-min Rain = 0
KCA2 120653Z 14007KT 32/15 A2992 RMK A01 T03170146  RH  036%=      5-min Rain = 0
KCA2 120654Z 14007KT 32/15 A2992 RMK A01 T03180146  RH  035%=      5-min Rain = 0
KCA2 120655Z 14007KT 32/15 A2992 RMK A01 T03180146  RH  035%=      5-min Rain = 0
KCA2 120656Z 14007KT 32/15 A2992 RMK A01 T03170146  RH  035%=      5-min Rain = 0
KCA2 120657Z 14007KT 32/15 A2992 RMK A01 T03170146  RH  035%=      5-min Rain = 0
KCA2 120658Z 15007KT 32/15 A2992 RMK A01 T03170146  RH  035%=      5-min Rain = 0
KCA2 120659Z 15005KT 32/15 A2992 RMK A01 T03170146  RH  036%=      5-min Rain = 0
KCA2 120700Z 16005KT 32/15 A2992 RMK A01 T03170147  RH  036%=      5-min Rain = 0
KCA2 120701Z 16006KT 32/15 A2992 RMK A01 T03160147  RH  036%=      5-min Rain = 0
KCA2 120702Z 16007KT 32/15 A2992 RMK A01 T03150148  RH  036%=      5-min Rain = 0
KCA2 120703Z 16007KT 31/15 A2992 RMK A01 T03140148  RH  037%=      5-min Rain = 0
KCA2 120704Z 15008KT 31/15 A2992 RMK A01 T03140148  RH  037%=      5-min Rain = 0
KCA2 120705Z 15007KT 31/15 A2992 RMK A01 T03140148  RH  037%=      5-min Rain = 0
KCA2 120706Z 15008KT 31/15 A2992 RMK A01 T03140148  RH  037%=      5-min Rain = 0
KCA2 120707Z 15008KT 31/15 A2992 RMK A01 T03140148  RH  037%=      5-min Rain = 0
KCA2 120708Z 15006KT 31/15 A2992 RMK A01 T03140147  RH  036%=      5-min Rain = 0
KCA2 120709Z 15006KT 32/15 A2992 RMK A01 T03150148  RH  036%=      5-min Rain = 0
KCA2 120710Z 15007KT 32/15 A2992 RMK A01 T03150148  RH  036%=      5-min Rain = 0
KCA2 120711Z 15006KT 32/15 A2992 RMK A01 T03150148  RH  036%=      5-min Rain = 0
KCA2 120712Z 14006KT 32/15 A2992 RMK A01 T03150148  RH  036%=      5-min Rain = 0
KCA2 120713Z 14007KT 32/15 A2992 RMK A01 T03150147  RH  036%=      5-min Rain = 0
KCA2 120714Z 14007KT 32/15 A2992 RMK A01 T03150147  RH  036%=      5-min Rain = 0
KCA2 120715Z 14006KT 32/15 A2992 RMK A01 T03150147  RH  036%=      5-min Rain = 0
KCA2 120716Z 15007KT 32/15 A2992 RMK A01 T03150147  RH  036%=      5-min Rain = 0
KCA2 120717Z 15008KT 32/15 A2991 RMK A01 T03150147  RH  036%=      5-min Rain = 0
KCA2 120718Z 14007KT 32/15 A2991 RMK A01 T03150147  RH  036%=      5-min Rain = 0
KCA2 120719Z 14007KT 32/15 A2991 RMK A01 T03150147  RH  036%=      5-min Rain = 0
KCA2 120720Z 14007KT 32/15 A2991 RMK A01 T03150147  RH  036%=      5-min Rain = 0
KCA2 120721Z 14006KT 32/15 A2991 RMK A01 T03150147  RH  036%=      5-min Rain = 0
KCA2 120722Z 14007KT 32/15 A2991 RMK A01 T03150147  RH  036%=      5-min Rain = 0
KCA2 120723Z 14007KT 32/15 A2991 RMK A01 T03150148  RH  036%=      5-min Rain = 0
KCA2 120724Z 14007KT 32/15 A2991 RMK A01 T03150147  RH  036%=      5-min Rain = 0
KCA2 120725Z 14007KT 32/15 A2991 RMK A01 T03150148  RH  036%=      5-min Rain = 0
KCA2 120726Z 14007KT 32/15 A2991 RMK A01 T03150148  RH  036%=      5-min Rain = 0
KCA2 120727Z 14007KT 32/15 A2991 RMK A01 T03150148  RH  036%=      5-min Rain = 0
KCA2 120728Z 14007KT 31/15 A2991 RMK A01 T03140148  RH  036%=      5-min Rain = 0
KCA2 120729Z 14007KT 32/15 A2991 RMK A01 T03150148  RH  036%=      5-min Rain = 0
KCA2 120730Z 13006KT 31/15 A2991 RMK A01 T03140148  RH  036%=      5-min Rain = 0
KCA2 120731Z 14007KT 31/15 A2991 RMK A01 T03140148  RH  037%=      5-min Rain = 0
KCA2 120732Z 14006KT 31/15 A2991 RMK A01 T03130148  RH  037%=      5-min Rain = 0
KCA2 120733Z 14007KT 31/15 A2991 RMK A01 T03130148  RH  037%=      5-min Rain = 0
KCA2 120734Z 14007KT 31/15 A2991 RMK A01 T03130147  RH  037%=      5-min Rain = 0
KCA2 120735Z 14006KT 31/15 A2991 RMK A01 T03130147  RH  037%=      5-min Rain = 0
KCA2 120736Z 14007KT 31/15 A2991 RMK A01 T03130147  RH  037%=      5-min Rain = 0
KCA2 120737Z 14007KT 31/15 A2991 RMK A01 T03130147  RH  037%=      5-min Rain = 0
KCA2 120738Z 14006KT 31/15 A2991 RMK A01 T03130148  RH  037%=      5-min Rain = 0
KCA2 120739Z 14007KT 31/15 A2991 RMK A01 T03130147  RH  037%=      5-min Rain = 0
KCA2 120740Z 14007KT 31/15 A2991 RMK A01 T03130147  RH  037%=      5-min Rain = 0
KCA2 120741Z 14007KT 31/15 A2991 RMK A01 T03130147  RH  037%=      5-min Rain = 0
KCA2 120742Z 15006KT 31/15 A2991 RMK A01 T03130147  RH  036%=      5-min Rain = 0
KCA2 120743Z 14006KT 31/15 A2991 RMK A01 T03130147  RH  036%=      5-min Rain = 0
KCA2 120744Z 14007KT 31/15 A2991 RMK A01 T03130147  RH  036%=      5-min Rain = 0
KCA2 120745Z 14007KT 31/15 A2991 RMK A01 T03130147  RH  036%=      5-min Rain = 0
KCA2 120746Z 14007KT 31/15 A2991 RMK A01 T03140147  RH  036%=      5-min Rain = 0
KCA2 120747Z 14006KT 31/15 A2991 RMK A01 T03140147  RH  036%=      5-min Rain = 0
KCA2 120748Z 14006KT 31/15 A2991 RMK A01 T03140147  RH  036%=      5-min Rain = 0
KCA2 120749Z 14007KT 31/15 A2991 RMK A01 T03140147  RH  036%=      5-min Rain = 0
KCA2 120750Z 14007KT 31/15 A2991 RMK A01 T03140147  RH  036%=      5-min Rain = 0
KCA2 120751Z 14007KT 32/15 A2991 RMK A01 T03150147  RH  036%=      5-min Rain = 0
KCA2 120752Z 15006KT 32/15 A2991 RMK A01 T03150147  RH  036%=      5-min Rain = 0
KCA2 120753Z 14007KT 32/15 A2991 RMK A01 T03150148  RH  036%=      5-min Rain = 0
KCA2 120754Z 15006KT 32/15 A2991 RMK A01 T03150147  RH  036%=      5-min Rain = 0
KCA2 120755Z 14007KT 32/15 A2991 RMK A01 T03150148  RH  036%=      5-min Rain = 0
KCA2 120756Z 15007KT 32/15 A2991 RMK A01 T03150148  RH  036%=      5-min Rain = 0
KCA2 120757Z 14006KT 32/15 A2991 RMK A01 T03150148  RH  036%=      5-min Rain = 0
KCA2 120758Z 14006KT 32/15 A2991 RMK A01 T03160148  RH  036%=      5-min Rain = 0
KCA2 120759Z 14007KT 32/15 A2991 RMK A01 T03150148  RH  036%=      5-min Rain = 0
KCA2 120800Z 14007KT 32/15 A2991 RMK A01 T03150148  RH  036%=      5-min Rain = 0
KCA2 120801Z 14007KT 32/15 A2991 RMK A01 T03150148  RH  036%=      5-min Rain = 0
KCA2 120802Z 14007KT 32/15 A2991 RMK A01 T03150148  RH  036%=      5-min Rain = 0
KCA2 120803Z 14007KT 32/15 A2991 RMK A01 T03150148  RH  036%=      5-min Rain = 0
KCA2 120804Z 14007KT 32/15 A2991 RMK A01 T03150147  RH  036%=      5-min Rain = 0
KCA2 120805Z 14006KT 32/15 A2991 RMK A01 T03150148  RH  036%=      5-min Rain = 0
KCA2 120806Z 13006KT 31/15 A2991 RMK A01 T03140148  RH  036%=      5-min Rain = 0
KCA2 120807Z 14006KT 31/15 A2991 RMK A01 T03130148  RH  037%=      5-min Rain = 0
KCA2 120808Z 14006KT 31/15 A2991 RMK A01 T03130148  RH  037%=      5-min Rain = 0
KCA2 120809Z 14006KT 31/15 A2991 RMK A01 T03130148  RH  037%=      5-min Rain = 0
KCA2 120810Z 14005KT 31/15 A2991 RMK A01 T03120148  RH  037%=      5-min Rain = 0
KCA2 120811Z 14005KT 31/15 A2991 RMK A01 T03110148  RH  037%=      5-min Rain = 0
KCA2 120812Z 15005KT 31/15 A2991 RMK A01 T03110148  RH  037%=      5-min Rain = 0
KCA2 120813Z 15005KT 31/15 A2991 RMK A01 T03100148  RH  037%=      5-min Rain = 0
KCA2 120814Z 15005KT 31/15 A2991 RMK A01 T03100148  RH  037%=      5-min Rain = 0
KCA2 120815Z 15005KT 31/15 A2991 RMK A01 T03100148  RH  037%=      5-min Rain = 0
KCA2 120816Z 15005KT 31/15 A2991 RMK A01 T03090147  RH  037%=      5-min Rain = 0
KCA2 120817Z 15005KT 31/15 A2991 RMK A01 T03090147  RH  037%=      5-min Rain = 0
KCA2 120818Z 15005KT 31/15 A2991 RMK A01 T03090148  RH  037%=      5-min Rain = 0
KCA2 120819Z 15006KT 31/15 A2991 RMK A01 T03090148  RH  037%=      5-min Rain = 0
KCA2 120820Z 15005KT 31/15 A2991 RMK A01 T03090147  RH  037%=      5-min Rain = 0
KCA2 120821Z 15005KT 31/15 A2991 RMK A01 T03090147  RH  037%=      5-min Rain = 0
KCA2 120822Z 15004KT 31/15 A2991 RMK A01 T03090147  RH  037%=      5-min Rain = 0
KCA2 120823Z 16005KT 31/15 A2991 RMK A01 T03090147  RH  037%=      5-min Rain = 0
KCA2 120824Z 15004KT 31/15 A2991 RMK A01 T03090147  RH  037%=      5-min Rain = 0
KCA2 120825Z 15005KT 31/15 A2991 RMK A01 T03090147  RH  037%=      5-min Rain = 0
KCA2 120826Z 15005KT 31/15 A2991 RMK A01 T03090147  RH  037%=      5-min Rain = 0
KCA2 120827Z 16005KT 31/15 A2991 RMK A01 T03090147  RH  037%=      5-min Rain = 0
KCA2 120828Z 16005KT 31/15 A2991 RMK A01 T03090147  RH  037%=      5-min Rain = 0
KCA2 120829Z 16005KT 31/15 A2991 RMK A01 T03090147  RH  038%=      5-min Rain = 0
KCA2 120830Z 16005KT 31/15 A2991 RMK A01 T03090148  RH  038%=      5-min Rain = 0
KCA2 120831Z 16005KT 31/15 A2991 RMK A01 T03090148  RH  038%=      5-min Rain = 0
KCA2 120832Z 16005KT 31/15 A2991 RMK A01 T03080147  RH  038%=      5-min Rain = 0
KCA2 120833Z 16004KT 31/15 A2991 RMK A01 T03080147  RH  038%=      5-min Rain = 0
KCA2 120834Z 16004KT 31/15 A2991 RMK A01 T03080147  RH  038%=      5-min Rain = 0
KCA2 120835Z 16004KT 31/15 A2991 RMK A01 T03070147  RH  038%=      5-min Rain = 0
KCA2 120836Z 17004KT 31/15 A2991 RMK A01 T03070147  RH  038%=      5-min Rain = 0
KCA2 120837Z 16004KT 31/15 A2991 RMK A01 T03070146  RH  038%=      5-min Rain = 0
KCA2 120838Z 16004KT 31/15 A2991 RMK A01 T03060146  RH  038%=      5-min Rain = 0
KCA2 120839Z 16004KT 31/15 A2991 RMK A01 T03060146  RH  038%=      5-min Rain = 0
KCA2 120840Z 16005KT 31/15 A2991 RMK A01 T03070146  RH  038%=      5-min Rain = 0
KCA2 120841Z 15005KT 31/15 A2991 RMK A01 T03060146  RH  038%=      5-min Rain = 0
KCA2 120842Z 15005KT 31/15 A2991 RMK A01 T03060146  RH  038%=      5-min Rain = 0
KCA2 120843Z 15005KT 31/15 A2991 RMK A01 T03060146  RH  038%=      5-min Rain = 0
KCA2 120844Z 15005KT 31/15 A2991 RMK A01 T03060146  RH  038%=      5-min Rain = 0
KCA2 120845Z 15005KT 31/15 A2991 RMK A01 T03060146  RH  038%=      5-min Rain = 0
KCA2 120846Z 15005KT 31/15 A2991 RMK A01 T03060145  RH  038%=      5-min Rain = 0
KCA2 120847Z 15005KT 31/15 A2991 RMK A01 T03060146  RH  038%=      5-min Rain = 0
KCA2 120848Z 15005KT 31/15 A2991 RMK A01 T03060146  RH  038%=      5-min Rain = 0
KCA2 120849Z 14005KT 31/15 A2991 RMK A01 T03060145  RH  038%=      5-min Rain = 0
KCA2 120850Z 14005KT 31/15 A2991 RMK A01 T03060145  RH  038%=      5-min Rain = 0
KCA2 120851Z 14005KT 31/15 A2991 RMK A01 T03050145  RH  038%=      5-min Rain = 0
KCA2 120852Z 14005KT 31/15 A2991 RMK A01 T03050145  RH  038%=      5-min Rain = 0
KCA2 120853Z 15005KT 31/15 A2991 RMK A01 T03050146  RH  038%=      5-min Rain = 0
KCA2 120854Z 15005KT 30/15 A2991 RMK A01 T03040145  RH  038%=      5-min Rain = 0
KCA2 120855Z 15005KT 30/15 A299 RMK A01 T03040145  RH  038%=      5-min Rain = 0
KCA2 120856Z 16005KT 30/15 A2991 RMK A01 T03040145  RH  038%=      5-min Rain = 0
KCA2 120857Z 15005KT 30/15 A2991 RMK A01 T03040145  RH  038%=      5-min Rain = 0
KCA2 120858Z 15005KT 30/14 A2991 RMK A01 T03040144  RH  038%=      5-min Rain = 0
KCA2 120859Z 16005KT 30/14 A2991 RMK A01 T03040144  RH  038%=      5-min Rain = 0
KCA2 120900Z 16004KT 30/14 A2991 RMK A01 T03040144  RH  038%=      5-min Rain = 0
KCA2 120901Z 16005KT 30/14 A2991 RMK A01 T03040144  RH  038%=      5-min Rain = 0
KCA2 120902Z 16005KT 30/14 A2991 RMK A01 T03040144  RH  038%=      5-min Rain = 0
KCA2 120903Z 16005KT 30/15 A2991 RMK A01 T03040145  RH  038%=      5-min Rain = 0
KCA2 120904Z 16005KT 30/15 A2991 RMK A01 T03040145  RH  038%=      5-min Rain = 0
KCA2 120905Z 16005KT 30/15 A2991 RMK A01 T03030145  RH  038%=      5-min Rain = 0
KCA2 120906Z 17005KT 30/15 A2991 RMK A01 T03020145  RH  038%=      5-min Rain = 0
KCA2 120907Z 17005KT 30/15 A2991 RMK A01 T03010146  RH  039%=      5-min Rain = 0
KCA2 120908Z 17005KT 30/15 A2991 RMK A01 T03010145  RH  039%=      5-min Rain = 0
KCA2 120909Z 17005KT 30/15 A2991 RMK A01 T03010145  RH  039%=      5-min Rain = 0
KCA2 120910Z 18005KT 30/15 A2991 RMK A01 T03010145  RH  039%=      5-min Rain = 0
KCA2 120911Z 19005KT 30/15 A2991 RMK A01 T03010145  RH  039%=      5-min Rain = 0
KCA2 120912Z 19005KT 30/15 A2991 RMK A01 T03000145  RH  039%=      5-min Rain = 0
KCA2 120913Z 19006KT 30/15 A2991 RMK A01 T03000145  RH  039%=      5-min Rain = 0
KCA2 120914Z 19006KT 30/14 A2991 RMK A01 T03000144  RH  039%=      5-min Rain = 0
KCA2 120915Z 19006KT 30/14 A2991 RMK A01 T03010144  RH  039%=      5-min Rain = 0
KCA2 120916Z 19006KT 30/14 A2991 RMK A01 T03000144  RH  039%=      5-min Rain = 0
KCA2 120917Z 18006KT 30/14 A2991 RMK A01 T03010144  RH  039%=      5-min Rain = 0
KCA2 120918Z 18007KT 30/14 A2991 RMK A01 T03000144  RH  039%=      5-min Rain = 0
KCA2 120919Z 18007KT 30/15 A2991 RMK A01 T03000145  RH  039%=      5-min Rain = 0
KCA2 120920Z 18007KT 30/15 A2991 RMK A01 T02990145  RH  039%=      5-min Rain = 0
KCA2 120921Z 17007KT 30/15 A2991 RMK A01 T02990145  RH  039%=      5-min Rain = 0
KCA2 120922Z 18006KT 30/14 A2991 RMK A01 T02990144  RH  039%=      5-min Rain = 0
KCA2 120923Z 18006KT 30/14 A2991 RMK A01 T02990144  RH  039%=      5-min Rain = 0
KCA2 120924Z 17006KT 30/14 A2991 RMK A01 T02990144  RH  039%=      5-min Rain = 0
KCA2 120925Z 17006KT 30/14 A2991 RMK A01 T02990144  RH  039%=      5-min Rain = 0
KCA2 120926Z 17006KT 30/14 A2991 RMK A01 T02980143  RH  039%=      5-min Rain = 0
KCA2 120927Z 17006KT 30/14 A2991 RMK A01 T02980143  RH  039%=      5-min Rain = 0
KCA2 120928Z 18007KT 30/14 A2992 RMK A01 T02980143  RH  039%=      5-min Rain = 0
KCA2 120929Z 17007KT 30/14 A2992 RMK A01 T02980142  RH  039%=      5-min Rain = 0
KCA2 120930Z 18007KT 30/14 A2992 RMK A01 T02980142  RH  038%=      5-min Rain = 0
KCA2 120931Z 18007KT 30/14 A2992 RMK A01 T02980141  RH  038%=      5-min Rain = 0
KCA2 120932Z 17007KT 30/14 A2992 RMK A01 T02990141  RH  038%=      5-min Rain = 0
KCA2 120933Z 17007KT 30/14 A2992 RMK A01 T02990141  RH  038%=      5-min Rain = 0
KCA2 120934Z 17007KT 30/14 A2992 RMK A01 T02990141  RH  038%=      5-min Rain = 0
KCA2 120935Z 17007KT 30/14 A2992 RMK A01 T03000141  RH  038%=      5-min Rain = 0
KCA2 120936Z 17006KT 30/14 A2992 RMK A01 T03000141  RH  038%=      5-min Rain = 0
KCA2 120937Z 17007KT 30/14 A2992 RMK A01 T03000141  RH  038%=      5-min Rain = 0
KCA2 120938Z 17006KT 30/14 A2992 RMK A01 T02990141  RH  038%=      5-min Rain = 0
KCA2 120939Z 17006KT 30/14 A2992 RMK A01 T02990141  RH  038%=      5-min Rain = 0
KCA2 120940Z 17005KT 30/14 A2992 RMK A01 T02990141  RH  038%=      5-min Rain = 0
KCA2 120941Z 17005KT 30/14 A2992 RMK A01 T02980140  RH  038%=      5-min Rain = 0
KCA2 120942Z 16005KT 30/14 A2992 RMK A01 T02980141  RH  038%=      5-min Rain = 0
KCA2 120943Z 16005KT 30/14 A2992 RMK A01 T02980141  RH  038%=      5-min Rain = 0
KCA2 120944Z 15005KT 30/14 A2992 RMK A01 T02970140  RH  038%=      5-min Rain = 0
KCA2 120945Z 15005KT 30/14 A2992 RMK A01 T02970141  RH  039%=      5-min Rain = 0
KCA2 120946Z 16005KT 30/14 A2992 RMK A01 T02960141  RH  039%=      5-min Rain = 0
KCA2 120947Z 15005KT 30/14 A2992 RMK A01 T02950142  RH  039%=      5-min Rain = 0
KCA2 120948Z 16006KT 30/14 A2992 RMK A01 T02950142  RH  039%=      5-min Rain = 0
KCA2 120949Z 16005KT 30/14 A2992 RMK A01 T02950141  RH  039%=      5-min Rain = 0
KCA2 120950Z 16005KT 30/14 A2992 RMK A01 T02950141  RH  039%=      5-min Rain = 0
KCA2 120951Z 16005KT 30/14 A2992 RMK A01 T02950141  RH  039%=      5-min Rain = 0
KCA2 120952Z 15005KT 30/14 A2992 RMK A01 T02950141  RH  039%=      5-min Rain = 0
KCA2 120953Z 15005KT 30/14 A2992 RMK A01 T02950141  RH  039%=      5-min Rain = 0
KCA2 120954Z 14005KT 30/14 A2992 RMK A01 T02950141  RH  039%=      5-min Rain = 0
KCA2 120955Z 14005KT 29/14 A2992 RMK A01 T02940140  RH  039%=      5-min Rain = 0
KCA2 120956Z 13005KT 29/14 A2992 RMK A01 T02940141  RH  039%=      5-min Rain = 0
KCA2 120957Z 14005KT 29/14 A2992 RMK A01 T02940141  RH  039%=      5-min Rain = 0
KCA2 120958Z 13005KT 29/14 A2992 RMK A01 T02930140  RH  039%=      5-min Rain = 0
KCA2 120959Z 13005KT 29/14 A2992 RMK A01 T02920140  RH  039%=      5-min Rain = 0
KCA2 121000Z 13005KT 29/14 A2992 RMK A01 T02910140  RH  039%=      5-min Rain = 0
KCA2 121001Z 12005KT 29/14 A2992 RMK A01 T02910139  RH  039%=      5-min Rain = 0
KCA2 121002Z 12006KT 29/14 A2992 RMK A01 T02910139  RH  039%=      5-min Rain = 0
KCA2 121003Z 12006KT 29/14 A2992 RMK A01 T02900139  RH  039%=      5-min Rain = 0
KCA2 121004Z 13006KT 29/14 A2992 RMK A01 T02910138  RH  039%=      5-min Rain = 0
KCA2 121005Z 12006KT 29/14 A2992 RMK A01 T02920139  RH  039%=      5-min Rain = 0
KCA2 121006Z 12006KT 29/14 A2992 RMK A01 T02930139  RH  039%=      5-min Rain = 0
KCA2 121007Z 11006KT 30/14 A2992 RMK A01 T02950139  RH  038%=      5-min Rain = 0
KCA2 121008Z 11005KT 30/14 A2992 RMK A01 T02960139  RH  038%=      5-min Rain = 0
KCA2 121009Z 10005KT 30/14 A2992 RMK A01 T02970138  RH  038%=      5-min Rain = 0
KCA2 121010Z 10005KT 30/14 A2992 RMK A01 T02980138  RH  038%=      5-min Rain = 0
KCA2 121011Z 09005KT 30/14 A2992 RMK A01 T02980138  RH  038%=      5-min Rain = 0
KCA2 121012Z 09003KT 30/14 A2992 RMK A01 T02970138  RH  038%=      5-min Rain = 0
KCA2 121013Z 11003KT 30/14 A2992 RMK A01 T02950137  RH  038%=      5-min Rain = 0
KCA2 121014Z 12004KT 29/14 A2992 RMK A01 T02940137  RH  038%=      5-min Rain = 0
KCA2 121015Z 12003KT 29/14 A2992 RMK A01 T02930137  RH  039%=      5-min Rain = 0
KCA2 121016Z 12004KT 29/14 A2992 RMK A01 T02930138  RH  039%=      5-min Rain = 0
KCA2 121017Z 11004KT 29/14 A2992 RMK A01 T02930138  RH  039%=      5-min Rain = 0
KCA2 121018Z 11005KT 29/14 A2992 RMK A01 T02930138  RH  039%=      5-min Rain = 0
KCA2 121019Z 11006KT 29/14 A2992 RMK A01 T02930138  RH  039%=      5-min Rain = 0
KCA2 121020Z 11005KT 29/14 A2992 RMK A01 T02940138  RH  038%=      5-min Rain = 0
KCA2 121021Z 10004KT 30/14 A2992 RMK A01 T02950138  RH  038%=      5-min Rain = 0
KCA2 121022Z 09004KT 30/14 A2992 RMK A01 T02950137  RH  038%=      5-min Rain = 0
KCA2 121023Z 09004KT 29/14 A2992 RMK A01 T02940137  RH  038%=      5-min Rain = 0
KCA2 121024Z 10005KT 29/14 A2992 RMK A01 T02940137  RH  038%=      5-min Rain = 0
KCA2 121025Z 11004KT 29/14 A2992 RMK A01 T02940137  RH  038%=      5-min Rain = 0
KCA2 121026Z 13003KT 29/14 A2992 RMK A01 T02940137  RH  038%=      5-min Rain = 0
KCA2 121027Z 17002KT 29/14 A2992 RMK A01 T02930137  RH  038%=      5-min Rain = 0
KCA2 121028Z 20002KT 29/14 A2992 RMK A01 T02920138  RH  039%=      5-min Rain = 0
KCA2 121029Z 22003KT 29/14 A2992 RMK A01 T02910138  RH  039%=      5-min Rain = 0
KCA2 121030Z 23003KT 29/14 A2992 RMK A01 T02900138  RH  039%=      5-min Rain = 0
KCA2 121031Z 21003KT 29/14 A2992 RMK A01 T02890138  RH  040%=      5-min Rain = 0
KCA2 121032Z 19003KT 29/14 A2992 RMK A01 T02870139  RH  040%=      5-min Rain = 0
KCA2 121033Z 18004KT 29/14 A2992 RMK A01 T02860139  RH  041%=      5-min Rain = 0
KCA2 121034Z 18003KT 29/14 A2992 RMK A01 T02850139  RH  041%=      5-min Rain = 0
KCA2 121035Z 19004KT 29/14 A2992 RMK A01 T02850140  RH  041%=      5-min Rain = 0
KCA2 121036Z 18004KT 29/14 A2992 RMK A01 T02850141  RH  041%=      5-min Rain = 0
KCA2 121037Z 18005KT 28/14 A2992 RMK A01 T02840141  RH  042%=      5-min Rain = 0
KCA2 121038Z 18005KT 28/14 A2992 RMK A01 T02840141  RH  042%=      5-min Rain = 0
KCA2 121039Z 17005KT 28/14 A2992 RMK A01 T02830141  RH  042%=      5-min Rain = 0
KCA2 121040Z 16006KT 28/14 A2992 RMK A01 T02830141  RH  042%=      5-min Rain = 0
KCA2 121041Z 15006KT 29/14 A2992 RMK A01 T02850140  RH  041%=      5-min Rain = 0
KCA2 121042Z 15006KT 29/14 A2992 RMK A01 T02870141  RH  041%=      5-min Rain = 0
KCA2 121043Z 14006KT 29/14 A2992 RMK A01 T02880141  RH  040%=      5-min Rain = 0
KCA2 121044Z 14005KT 29/14 A2992 RMK A01 T02890141  RH  040%=      5-min Rain = 0
KCA2 121045Z 14005KT 29/14 A2992 RMK A01 T02890141  RH  040%=      5-min Rain = 0
KCA2 121046Z 14005KT 29/14 A2992 RMK A01 T02900141  RH  040%=      5-min Rain = 0
KCA2 121047Z 14005KT 29/14 A2992 RMK A01 T02900141  RH  040%=      5-min Rain = 0
KCA2 121048Z 14005KT 29/14 A2992 RMK A01 T02890141  RH  040%=      5-min Rain = 0
KCA2 121049Z 14005KT 29/14 A2992 RMK A01 T02890140  RH  040%=      5-min Rain = 0
KCA2 121050Z 15004KT 29/14 A2992 RMK A01 T02890140  RH  040%=      5-min Rain = 0
KCA2 121051Z 15004KT 29/14 A2992 RMK A01 T02900140  RH  040%=      5-min Rain = 0
KCA2 121052Z 15004KT 29/14 A2992 RMK A01 T02900140  RH  040%=      5-min Rain = 0
KCA2 121053Z 15005KT 29/14 A2992 RMK A01 T02900140  RH  040%=      5-min Rain = 0
KCA2 121054Z 16004KT 29/14 A2992 RMK A01 T02900140  RH  040%=      5-min Rain = 0
KCA2 121055Z 16004KT 29/14 A2992 RMK A01 T02900140  RH  040%=      5-min Rain = 0
KCA2 121056Z 16004KT 29/14 A2992 RMK A01 T02900140  RH  040%=      5-min Rain = 0
KCA2 121057Z 15003KT 29/14 A2992 RMK A01 T02890140  RH  040%=      5-min Rain = 0
KCA2 121058Z 15004KT 29/14 A2992 RMK A01 T02890140  RH  040%=      5-min Rain = 0
KCA2 121059Z 15004KT 29/14 A2992 RMK A01 T02890140  RH  040%=      5-min Rain = 0
KCA2 121100Z 14005KT 29/14 A2992 RMK A01 T02890140  RH  040%=      5-min Rain = 0
KCA2 121101Z 14005KT 29/14 A2992 RMK A01 T02880140  RH  040%=      5-min Rain = 0
KCA2 121102Z 14005KT 29/14 A2992 RMK A01 T02880141  RH  041%=      5-min Rain = 0
KCA2 121103Z 14005KT 29/14 A2993 RMK A01 T02870140  RH  041%=      5-min Rain = 0
KCA2 121104Z 14005KT 29/14 A2993 RMK A01 T02870140  RH  040%=      5-min Rain = 0
KCA2 121105Z 14005KT 29/14 A2993 RMK A01 T02880140  RH  040%=      5-min Rain = 0
KCA2 121106Z 15005KT 29/14 A2993 RMK A01 T02880140  RH  040%=      5-min Rain = 0
KCA2 121107Z 15005KT 29/14 A2993 RMK A01 T02880140  RH  040%=      5-min Rain = 0
KCA2 121108Z 15005KT 29/14 A2993 RMK A01 T02880139  RH  040%=      5-min Rain = 0
KCA2 121109Z 15005KT 29/14 A2993 RMK A01 T02880140  RH  040%=      5-min Rain = 0
KCA2 121110Z 15005KT 29/14 A2993 RMK A01 T02880140  RH  040%=      5-min Rain = 0
KCA2 121111Z 15004KT 29/14 A2993 RMK A01 T02880140  RH  040%=      5-min Rain = 0
KCA2 121112Z 14004KT 29/14 A2993 RMK A01 T02880140  RH  040%=      5-min Rain = 0
KCA2 121113Z 14004KT 29/14 A2993 RMK A01 T02870140  RH  040%=      5-min Rain = 0
KCA2 121114Z 14005KT 29/14 A2993 RMK A01 T02870139  RH  041%=      5-min Rain = 0
KCA2 121115Z 14006KT 29/14 A2993 RMK A01 T02860140  RH  041%=      5-min Rain = 0
KCA2 121116Z 15006KT 29/14 A2993 RMK A01 T02870139  RH  040%=      5-min Rain = 0
KCA2 121117Z 15006KT 29/14 A2993 RMK A01 T02870139  RH  040%=      5-min Rain = 0
KCA2 121118Z 15005KT 29/14 A2993 RMK A01 T02870139  RH  040%=      5-min Rain = 0
KCA2 121119Z 15005KT 29/14 A2993 RMK A01 T02870139  RH  040%=      5-min Rain = 0
KCA2 121120Z 15005KT 29/14 A2993 RMK A01 T02880140  RH  040%=      5-min Rain = 0
KCA2 121121Z 15005KT 29/14 A2993 RMK A01 T02870139  RH  040%=      5-min Rain = 0
KCA2 121122Z 15005KT 29/14 A2993 RMK A01 T02870140  RH  040%=      5-min Rain = 0
KCA2 121123Z 15005KT 29/14 A2993 RMK A01 T02860139  RH  041%=      5-min Rain = 0
KCA2 121124Z 15005KT 29/14 A2993 RMK A01 T02860139  RH  041%=      5-min Rain = 0
KCA2 121125Z 15005KT 29/14 A2993 RMK A01 T02850139  RH  041%=      5-min Rain = 0
KCA2 121126Z 15005KT 29/14 A2993 RMK A01 T02850139  RH  041%=      5-min Rain = 0
KCA2 121127Z 15005KT 29/14 A2993 RMK A01 T02850139  RH  041%=      5-min Rain = 0
KCA2 121128Z 15005KT 29/14 A2993 RMK A01 T02850139  RH  041%=      5-min Rain = 0
KCA2 121129Z 15005KT 29/14 A2993 RMK A01 T02850139  RH  041%=      5-min Rain = 0
KCA2 121130Z 15005KT 29/14 A2993 RMK A01 T02850139  RH  041%=      5-min Rain = 0
KCA2 121131Z 15005KT 29/14 A2993 RMK A01 T02860139  RH  041%=      5-min Rain = 0
KCA2 121132Z 14005KT 29/14 A2993 RMK A01 T02870139  RH  040%=      5-min Rain = 0
KCA2 121133Z 14005KT 29/14 A2993 RMK A01 T02880140  RH  040%=      5-min Rain = 0
KCA2 121134Z 14005KT 29/14 A2993 RMK A01 T02880139  RH  040%=      5-min Rain = 0
KCA2 121135Z 14005KT 29/14 A2993 RMK A01 T02880140  RH  040%=      5-min Rain = 0
KCA2 121136Z 13005KT 29/14 A2993 RMK A01 T02880140  RH  040%=      5-min Rain = 0
KCA2 121137Z 13005KT 29/14 A2993 RMK A01 T02870140  RH  041%=      5-min Rain = 0
KCA2 121138Z 13005KT 29/14 A2993 RMK A01 T02850140  RH  041%=      5-min Rain = 0
KCA2 121139Z 14005KT 28/14 A2993 RMK A01 T02840139  RH  041%=      5-min Rain = 0
KCA2 121140Z 13005KT 28/14 A2993 RMK A01 T02840139  RH  041%=      5-min Rain = 0
KCA2 121141Z 13005KT 28/14 A2993 RMK A01 T02830139  RH  041%=      5-min Rain = 0
KCA2 121142Z 14005KT 28/14 A2993 RMK A01 T02830139  RH  041%=      5-min Rain = 0
KCA2 121143Z 14005KT 28/14 A2993 RMK A01 T02830139  RH  041%=      5-min Rain = 0
KCA2 121144Z 14006KT 28/14 A2993 RMK A01 T02830139  RH  041%=      5-min Rain = 0
KCA2 121145Z 14005KT 28/14 A2993 RMK A01 T02840139  RH  041%=      5-min Rain = 0
KCA2 121146Z 14005KT 28/14 A2993 RMK A01 T02840139  RH  041%=      5-min Rain = 0
KCA2 121147Z 14006KT 28/14 A2993 RMK A01 T02840139  RH  041%=      5-min Rain = 0
KCA2 121148Z 13005KT 28/14 A2993 RMK A01 T02840140  RH  041%=      5-min Rain = 0
KCA2 121149Z 13006KT 28/14 A2993 RMK A01 T02830140  RH  041%=      5-min Rain = 0
KCA2 121150Z 13006KT 28/14 A2993 RMK A01 T02820140  RH  042%=      5-min Rain = 0
KCA2 121151Z 14006KT 28/14 A2993 RMK A01 T02820140  RH  042%=      5-min Rain = 0
KCA2 121152Z 14006KT 28/14 A2993 RMK A01 T02820140  RH  042%=      5-min Rain = 0
KCA2 121153Z 14006KT 28/14 A2993 RMK A01 T02810140  RH  042%=      5-min Rain = 0
KCA2 121154Z 14006KT 28/14 A2993 RMK A01 T02810140  RH  042%=      5-min Rain = 0
KCA2 121155Z 15006KT 28/14 A2993 RMK A01 T02810140  RH  042%=      5-min Rain = 0
KCA2 121156Z 15006KT 28/14 A2993 RMK A01 T02810140  RH  042%=      5-min Rain = 0
KCA2 121157Z 15006KT 28/14 A2993 RMK A01 T02810140  RH  042%=      5-min Rain = 0
KCA2 121158Z 15006KT 28/14 A2993 RMK A01 T02810139  RH  042%=      5-min Rain = 0
KCA2 121159Z 15006KT 28/14 A2993 RMK A01 T02820140  RH  042%=      5-min Rain = 0
KCA2 121200Z 16005KT 28/14 A2993 RMK A01 T02830140  RH  041%=      5-min Rain = 0
KCA2 121201Z 15005KT 28/14 A2993 RMK A01 T02840140  RH  041%=      5-min Rain = 0
KCA2 121202Z 15005KT 28/14 A2993 RMK A01 T02840140  RH  041%=      5-min Rain = 0
KCA2 121203Z 15005KT 28/14 A2993 RMK A01 T02840141  RH  042%=      5-min Rain = 0
KCA2 121204Z 15005KT 28/14 A2993 RMK A01 T02840142  RH  042%=      5-min Rain = 0
KCA2 121205Z 15005KT 28/14 A2993 RMK A01 T02830142  RH  042%=      5-min Rain = 0
KCA2 121206Z 15005KT 28/14 A2993 RMK A01 T02820142  RH  042%=      5-min Rain = 0
KCA2 121207Z 14005KT 28/14 A2993 RMK A01 T02820142  RH  042%=      5-min Rain = 0
KCA2 121208Z 14004KT 28/14 A2993 RMK A01 T02810142  RH  042%=      5-min Rain = 0
KCA2 121209Z 14004KT 28/14 A2993 RMK A01 T02800142  RH  043%=      5-min Rain = 0
KCA2 121210Z 14004KT 28/14 A2993 RMK A01 T02800142  RH  043%=      5-min Rain = 0
KCA2 121211Z 15004KT 28/14 A2993 RMK A01 T02790141  RH  043%=      5-min Rain = 0
KCA2 121212Z 16004KT 28/14 A2994 RMK A01 T02790141  RH  043%=      5-min Rain = 0
KCA2 121213Z 16003KT 28/14 A2994 RMK A01 T02790142  RH  043%=      5-min Rain = 0
KCA2 121214Z 16003KT 28/14 A2994 RMK A01 T02770142  RH  043%=      5-min Rain = 0
KCA2 121215Z 17003KT 28/14 A2994 RMK A01 T02750141  RH  044%=      5-min Rain = 0
KCA2 121216Z 18002KT 28/14 A2994 RMK A01 T02750141  RH  044%=      5-min Rain = 0
KCA2 121217Z 20001KT 27/14 A2994 RMK A01 T02740141  RH  044%=      5-min Rain = 0
KCA2 121218Z 24001KT 27/14 A2994 RMK A01 T02730141  RH  044%=      5-min Rain = 0
KCA2 121219Z 26001KT 27/14 A2994 RMK A01 T02720141  RH  044%=      5-min Rain = 0
KCA2 121220Z 29000KT 27/14 A2994 RMK A01 T02720141  RH  044%=      5-min Rain = 0
KCA2 121221Z 28000KT 27/14 A2994 RMK A01 T02720141  RH  044%=      5-min Rain = 0
KCA2 121222Z 27000KT 27/14 A2994 RMK A01 T02720141  RH  045%=      5-min Rain = 0
KCA2 121223Z 28000KT 27/14 A2994 RMK A01 T02710141  RH  045%=      5-min Rain = 0
KCA2 121224Z 23001KT 27/14 A2994 RMK A01 T02710141  RH  045%=      5-min Rain = 0
KCA2 121225Z 24001KT 27/14 A2994 RMK A01 T02720141  RH  045%=      5-min Rain = 0
KCA2 121226Z 00000KT 27/14 A2994 RMK A01 T02730141  RH  044%=      5-min Rain = 0
KCA2 121227Z 00000KT 27/14 A2994 RMK A01 T02740142  RH  044%=      5-min Rain = 0
KCA2 121228Z 00000KT 28/14 A2994 RMK A01 T02750142  RH  044%=      5-min Rain = 0
KCA2 121229Z 00000KT 28/14 A2994 RMK A01 T02760142  RH  044%=      5-min Rain = 0
KCA2 121230Z 00000KT 28/14 A2994 RMK A01 T02760142  RH  044%=      5-min Rain = 0
KCA2 121231Z 00000KT 28/14 A2994 RMK A01 T02770142  RH  044%=      5-min Rain = 0
KCA2 121232Z 00000KT 28/14 A2994 RMK A01 T02780142  RH  043%=      5-min Rain = 0
KCA2 121233Z 23001KT 28/14 A2994 RMK A01 T02780142  RH  043%=      5-min Rain = 0
KCA2 121234Z 21001KT 28/14 A2994 RMK A01 T02790142  RH  043%=      5-min Rain = 0
KCA2 121235Z 22000KT 28/14 A2994 RMK A01 T02790142  RH  043%=      5-min Rain = 0
KCA2 121236Z 21000KT 28/14 A2994 RMK A01 T02790142  RH  043%=      5-min Rain = 0
KCA2 121237Z 20000KT 28/14 A2994 RMK A01 T02790141  RH  043%=      5-min Rain = 0
KCA2 121238Z 17000KT 28/14 A2994 RMK A01 T02790141  RH  043%=      5-min Rain = 0
KCA2 121239Z 12000KT 28/14 A2994 RMK A01 T02800141  RH  043%=      5-min Rain = 0
KCA2 121240Z 12001KT 28/14 A2994 RMK A01 T02800141  RH  042%=      5-min Rain = 0
KCA2 121241Z 08001KT 28/14 A2994 RMK A01 T02810141  RH  042%=      5-min Rain = 0
KCA2 121242Z 09001KT 28/14 A2994 RMK A01 T02820141  RH  042%=      5-min Rain = 0
KCA2 121243Z 08002KT 28/14 A2994 RMK A01 T02820141  RH  042%=      5-min Rain = 0
KCA2 121244Z 09001KT 28/14 A2994 RMK A01 T02830141  RH  042%=      5-min Rain = 0
KCA2 121245Z 07002KT 28/14 A2994 RMK A01 T02830141  RH  042%=      5-min Rain = 0
KCA2 121246Z 09002KT 28/14 A2994 RMK A01 T02830141  RH  042%=      5-min Rain = 0
KCA2 121247Z 10003KT 28/14 A2994 RMK A01 T02830141  RH  042%=      5-min Rain = 0
KCA2 121248Z 10003KT 28/14 A2994 RMK A01 T02830140  RH  042%=      5-min Rain = 0
KCA2 121249Z 10003KT 28/14 A2995 RMK A01 T02840141  RH  042%=      5-min Rain = 0
KCA2 121250Z 10003KT 28/14 A2995 RMK A01 T02840141  RH  042%=      5-min Rain = 0
KCA2 121251Z 10003KT 28/14 A2995 RMK A01 T02840141  RH  041%=      5-min Rain = 0
KCA2 121252Z 10003KT 29/14 A2995 RMK A01 T02850140  RH  041%=      5-min Rain = 0
KCA2 121253Z 10003KT 29/14 A2995 RMK A01 T02850141  RH  041%=      5-min Rain = 0
KCA2 121254Z 10003KT 29/14 A2995 RMK A01 T02850141  RH  041%=      5-min Rain = 0
KCA2 121255Z 10003KT 29/14 A2995 RMK A01 T02850140  RH  041%=      5-min Rain = 0
KCA2 121256Z 11003KT 29/14 A2995 RMK A01 T02860141  RH  041%=      5-min Rain = 0
KCA2 121257Z 11003KT 29/14 A2995 RMK A01 T02860141  RH  041%=      5-min Rain = 0
KCA2 121258Z 11003KT 29/14 A2995 RMK A01 T02870141  RH  041%=      5-min Rain = 0
KCA2 121259Z 11003KT 29/14 A2995 RMK A01 T02880141  RH  041%=      5-min Rain = 0
KCA2 121300Z 10003KT 29/14 A2995 RMK A01 T02880141  RH  040%=      5-min Rain = 0
KCA2 121301Z 10003KT 29/14 A2995 RMK A01 T02880141  RH  040%=      5-min Rain = 0
KCA2 121302Z 10003KT 29/14 A2995 RMK A01 T02890142  RH  041%=      5-min Rain = 0
KCA2 121303Z 10003KT 29/14 A2996 RMK A01 T02890142  RH  041%=      5-min Rain = 0
KCA2 121304Z 10004KT 29/14 A2996 RMK A01 T02890142  RH  041%=      5-min Rain = 0
KCA2 121305Z 10004KT 29/14 A2996 RMK A01 T02890141  RH  040%=      5-min Rain = 0
KCA2 121306Z 11004KT 29/14 A2996 RMK A01 T02890142  RH  040%=      5-min Rain = 0
KCA2 121307Z 12005KT 29/14 A2996 RMK A01 T02880142  RH  041%=      5-min Rain = 0
KCA2 121308Z 12005KT 29/14 A2996 RMK A01 T02880142  RH  041%=      5-min Rain = 0
KCA2 121309Z 12005KT 29/14 A2996 RMK A01 T02880142  RH  041%=      5-min Rain = 0
KCA2 121310Z 13006KT 29/14 A2996 RMK A01 T02890142  RH  041%=      5-min Rain = 0
KCA2 121311Z 13006KT 29/14 A2996 RMK A01 T02880142  RH  041%=      5-min Rain = 0
KCA2 121312Z 13006KT 29/14 A2996 RMK A01 T02880143  RH  041%=      5-min Rain = 0
KCA2 121313Z 13007KT 29/14 A2996 RMK A01 T02890144  RH  041%=      5-min Rain = 0
KCA2 121314Z 13007KT 29/15 A2996 RMK A01 T02890145  RH  041%=      5-min Rain = 0
KCA2 121315Z 13007KT 29/15 A2996 RMK A01 T02900146  RH  042%=      5-min Rain = 0
KCA2 121316Z 13007KT 29/15 A2996 RMK A01 T02910147  RH  041%=      5-min Rain = 0
KCA2 121317Z 14007KT 29/15 A2996 RMK A01 T02920147  RH  041%=      5-min Rain = 0
KCA2 121318Z 14007KT 29/15 A2996 RMK A01 T02930147  RH  041%=      5-min Rain = 0
KCA2 121319Z 14007KT 29/15 A2996 RMK A01 T02930148  RH  041%=      5-min Rain = 0
KCA2 121320Z 15007KT 29/15 A2996 RMK A01 T02930148  RH  041%=      5-min Rain = 0
KCA2 121321Z 14006KT 29/15 A2996 RMK A01 T02930148  RH  041%=      5-min Rain = 0
KCA2 121322Z 14006KT 29/15 A2996 RMK A01 T02940149  RH  041%=      5-min Rain = 0
KCA2 121323Z 15006KT 29/15 A2996 RMK A01 T02940149  RH  041%=      5-min Rain = 0
KCA2 121324Z 14006KT 29/15 A2996 RMK A01 T02940149  RH  041%=      5-min Rain = 0
KCA2 121325Z 14005KT 30/15 A2996 RMK A01 T02950150  RH  041%=      5-min Rain = 0
KCA2 121326Z 14006KT 30/15 A2996 RMK A01 T02950150  RH  041%=      5-min Rain = 0
KCA2 121327Z 14005KT 30/15 A2996 RMK A01 T02960151  RH  041%=      5-min Rain = 0
KCA2 121328Z 15006KT 30/15 A2996 RMK A01 T02960152  RH  041%=      5-min Rain = 0
KCA2 121329Z 15006KT 30/15 A2996 RMK A01 T02970152  RH  041%=      5-min Rain = 0
KCA2 121330Z 14006KT 30/15 A2997 RMK A01 T02980152  RH  041%=      5-min Rain = 0
KCA2 121331Z 14005KT 30/15 A2996 RMK A01 T02990153  RH  041%=      5-min Rain = 0
KCA2 121332Z 15007KT 30/15 A2997 RMK A01 T02990153  RH  041%=      5-min Rain = 0
KCA2 121333Z 14006KT 30/15 A2997 RMK A01 T03000154  RH  041%=      5-min Rain = 0
KCA2 121334Z 14007KT 30/16 A2997 RMK A01 T03000155  RH  041%=      5-min Rain = 0
KCA2 121335Z 14006KT 30/16 A2997 RMK A01 T03010156  RH  041%=      5-min Rain = 0
KCA2 121336Z 14007KT 30/16 A2997 RMK A01 T03020156  RH  041%=      5-min Rain = 0
KCA2 121337Z 14007KT 30/16 A2997 RMK A01 T03020156  RH  041%=      5-min Rain = 0
KCA2 121338Z 15006KT 30/16 A2997 RMK A01 T03030157  RH  041%=      5-min Rain = 0
KCA2 121339Z 14007KT 30/16 A2997 RMK A01 T03030157  RH  041%=      5-min Rain = 0
KCA2 121340Z 15009KT 30/16 A2997 RMK A01 T03040157  RH  041%=      5-min Rain = 0
KCA2 121341Z 14007KT 30/16 A2997 RMK A01 T03040157  RH  041%=      5-min Rain = 0
KCA2 121342Z 14007KT 30/16 A2997 RMK A01 T03040157  RH  041%=      5-min Rain = 0
KCA2 121343Z 14007KT 30/16 A2997 RMK A01 T03040158  RH  041%=      5-min Rain = 0
KCA2 121344Z 15009KT 30/16 A2997 RMK A01 T03040157  RH  041%=      5-min Rain = 0
KCA2 121345Z 14008KT 30/16 A2997 RMK A01 T03040157  RH  041%=      5-min Rain = 0
KCA2 121346Z 14006KT 30/16 A2997 RMK A01 T03040157  RH  041%=      5-min Rain = 0
KCA2 121347Z 14007KT 31/16 A2997 RMK A01 T03050158  RH  041%=      5-min Rain = 0
KCA2 121348Z 14008KT 31/16 A2997 RMK A01 T03050156  RH  040%=      5-min Rain = 0
KCA2 121349Z 14008KT 31/16 A2997 RMK A01 T03050156  RH  040%=      5-min Rain = 0
KCA2 121350Z 15006KT 31/16 A2997 RMK A01 T03050156  RH  041%=      5-min Rain = 0
KCA2 121351Z 16007KT 31/16 A2997 RMK A01 T03060156  RH  040%=      5-min Rain = 0
KCA2 121352Z 15007KT 31/16 A2997 RMK A01 T03060155  RH  040%=      5-min Rain = 0
KCA2 121353Z 15007KT 31/16 A2997 RMK A01 T03070156  RH  040%=      5-min Rain = 0
KCA2 121354Z 14007KT 31/16 A2997 RMK A01 T03070155  RH  040%=      5-min Rain = 0
KCA2 121355Z 14006KT 31/16 A2997 RMK A01 T03070155  RH  040%=      5-min Rain = 0
KCA2 121356Z 14005KT 31/16 A2998 RMK A01 T03080156  RH  040%=      5-min Rain = 0
KCA2 121357Z 14007KT 31/16 A2998 RMK A01 T03080156  RH  040%=      5-min Rain = 0
KCA2 121358Z 14007KT 31/16 A2998 RMK A01 T03080155  RH  040%=      5-min Rain = 0
KCA2 121359Z 14006KT 31/16 A2998 RMK A01 T03090155  RH  039%=      5-min Rain = 0
KCA2 121400Z 15005KT 31/16 A2998 RMK A01 T03090155  RH  039%=      5-min Rain = 0
KCA2 121401Z 16004KT 31/16 A2998 RMK A01 T03100156  RH  040%=      5-min Rain = 0
KCA2 121402Z 15005KT 31/16 A2998 RMK A01 T03110156  RH  039%=      5-min Rain = 0
KCA2 121403Z 15006KT 31/16 A2998 RMK A01 T03120155  RH  039%=      5-min Rain = 0
KCA2 121404Z 16007KT 31/15 A2998 RMK A01 T03120154  RH  038%=      5-min Rain = 0
KCA2 121405Z 16006KT 31/16 A2998 RMK A01 T03130155  RH  039%=      5-min Rain = 0
KCA2 121406Z 16006KT 31/16 A2998 RMK A01 T03130156  RH  039%=      5-min Rain = 0
KCA2 121407Z 15005KT 31/16 A2998 RMK A01 T03140156  RH  039%=      5-min Rain = 0
KCA2 121408Z 14005KT 31/16 A2998 RMK A01 T03140156  RH  038%=      5-min Rain = 0
KCA2 121409Z 14006KT 32/16 A2998 RMK A01 T03160156  RH  038%=      5-min Rain = 0
KCA2 121410Z 14006KT 32/16 A2998 RMK A01 T03150155  RH  038%=      5-min Rain = 0
KCA2 121411Z 13007KT 32/16 A2998 RMK A01 T03150156  RH  038%=      5-min Rain = 0
KCA2 121412Z 13008KT 32/16 A2998 RMK A01 T03150155  RH  038%=      5-min Rain = 0
KCA2 121413Z 13008KT 32/16 A2998 RMK A01 T03150155  RH  038%=      5-min Rain = 0
KCA2 121414Z 14007KT 32/16 A2998 RMK A01 T03150155  RH  038%=      5-min Rain = 0
KCA2 121415Z 15007KT 32/16 A2998 RMK A01 T03150155  RH  038%=      5-min Rain = 0
KCA2 121416Z 15006KT 32/16 A2998 RMK A01 T03150156  RH  038%=      5-min Rain = 0
KCA2 121417Z 16007KT 32/15 A2998 RMK A01 T03160154  RH  038%=      5-min Rain = 0
KCA2 121418Z 15007KT 32/16 A2998 RMK A01 T03170155  RH  038%=      5-min Rain = 0
KCA2 121419Z 15008KT 32/16 A2998 RMK A01 T03180155  RH  037%=      5-min Rain = 0
KCA2 121420Z 15008KT 32/15 A2998 RMK A01 T03180154  RH  037%=      5-min Rain = 0
KCA2 121421Z 15005KT 32/15 A2998 RMK A01 T03180154  RH  037%=      5-min Rain = 0
KCA2 121422Z 14006KT 32/16 A2998 RMK A01 T03180155  RH  037%=      5-min Rain = 0
KCA2 121423Z 14004KT 32/16 A2998 RMK A01 T03190155  RH  037%=      5-min Rain = 0
KCA2 121424Z 15006KT 32/16 A2998 RMK A01 T03200155  RH  037%=      5-min Rain = 0
KCA2 121425Z 16006KT 32/16 A2998 RMK A01 T03210155  RH  037%=      5-min Rain = 0
KCA2 121426Z 16006KT 32/16 A2998 RMK A01 T03210155  RH  037%=      5-min Rain = 0
KCA2 121427Z 13005KT 32/16 A2998 RMK A01 T03210156  RH  037%=      5-min Rain = 0
KCA2 121428Z 13005KT 32/16 A2998 RMK A01 T03230155  RH  036%=      5-min Rain = 0
KCA2 121429Z 14005KT 32/15 A2998 RMK A01 T03240154  RH  036%=      5-min Rain = 0
KCA2 121430Z 14007KT 32/15 A2998 RMK A01 T03240153  RH  036%=      5-min Rain = 0
KCA2 121431Z 14006KT 32/15 A2997 RMK A01 T03240153  RH  036%=      5-min Rain = 0
KCA2 121432Z 15007KT 32/15 A2997 RMK A01 T03230152  RH  036%=      5-min Rain = 0
KCA2 121433Z 15006KT 32/15 A2997 RMK A01 T03220153  RH  036%=      5-min Rain = 0
KCA2 121434Z 15004KT 32/15 A2997 RMK A01 T03220153  RH  036%=      5-min Rain = 0
KCA2 121435Z 14006KT 32/15 A2997 RMK A01 T03240154  RH  036%=      5-min Rain = 0
KCA2 121436Z 14006KT 32/15 A2997 RMK A01 T03240153  RH  036%=      5-min Rain = 0
KCA2 121437Z 15005KT 32/15 A2997 RMK A01 T03240154  RH  036%=      5-min Rain = 0
KCA2 121438Z 15005KT 33/15 A2997 RMK A01 T03250154  RH  036%=      5-min Rain = 0
KCA2 121439Z 15005KT 33/15 A2997 RMK A01 T03250153  RH  035%=      5-min Rain = 0
KCA2 121440Z 15004KT 33/16 A2997 RMK A01 T03260155  RH  036%=      5-min Rain = 0
KCA2 121441Z 12006KT 33/16 A2997 RMK A01 T03280155  RH  035%=      5-min Rain = 0
KCA2 121442Z 13005KT 33/15 A2997 RMK A01 T03280153  RH  035%=      5-min Rain = 0
KCA2 121443Z 15007KT 33/16 A2997 RMK A01 T03280155  RH  035%=      5-min Rain = 0
KCA2 121444Z 14007KT 33/15 A2997 RMK A01 T03280154  RH  035%=      5-min Rain = 0
KCA2 121445Z 14006KT 33/15 A2997 RMK A01 T03270154  RH  035%=      5-min Rain = 0
KCA2 121446Z 14006KT 33/15 A2997 RMK A01 T03260154  RH  035%=      5-min Rain = 0
KCA2 121447Z 16008KT 33/15 A2997 RMK A01 T03270154  RH  035%=      5-min Rain = 0
KCA2 121448Z 15006KT 33/15 A2997 RMK A01 T03270154  RH  035%=      5-min Rain = 0
KCA2 121449Z 15006KT 33/16 A2997 RMK A01 T03270155  RH  036%=      5-min Rain = 0
KCA2 121450Z 16007KT 33/16 A2997 RMK A01 T03290155  RH  035%=      5-min Rain = 0
KCA2 121451Z 16007KT 33/15 A2997 RMK A01 T03290153  RH  035%=      5-min Rain = 0
KCA2 121452Z 17006KT 33/15 A2997 RMK A01 T03290154  RH  035%=      5-min Rain = 0
KCA2 121453Z 16006KT 33/15 A2997 RMK A01 T03290152  RH  034%=      5-min Rain = 0
KCA2 121454Z 17007KT 33/15 A2997 RMK A01 T03290153  RH  035%=      5-min Rain = 0
KCA2 121455Z 17005KT 33/15 A2997 RMK A01 T03280153  RH  035%=      5-min Rain = 0
KCA2 121456Z 17006KT 33/15 A2998 RMK A01 T03290153  RH  035%=      5-min Rain = 0
KCA2 121457Z 15006KT 33/15 A2998 RMK A01 T03300151  RH  034%=      5-min Rain = 0
KCA2 121458Z 17004KT 33/15 A2998 RMK A01 T03300151  RH  034%=      5-min Rain = 0
KCA2 121459Z 15005KT 33/15 A2998 RMK A01 T03300153  RH  035%=      5-min Rain = 0
KCA2 121500Z 15004KT 33/15 A2998 RMK A01 T03300152  RH  034%=      5-min Rain = 0
KCA2 121501Z 15006KT 33/15 A2998 RMK A01 T03320154  RH  034%=      5-min Rain = 0
KCA2 121502Z 16005KT 33/15 A2998 RMK A01 T03320154  RH  034%=      5-min Rain = 0
KCA2 121503Z 16005KT 33/15 A2998 RMK A01 T03330154  RH  034%=      5-min Rain = 0
KCA2 121504Z 15006KT 33/15 A2998 RMK A01 T03340153  RH  034%=      5-min Rain = 0
KCA2 121505Z 16006KT 33/15 A2997 RMK A01 T03330153  RH  034%=      5-min Rain = 0
KCA2 121506Z 15006KT 33/15 A2997 RMK A01 T03320153  RH  034%=      5-min Rain = 0
KCA2 121507Z 15006KT 33/15 A2997 RMK A01 T03310153  RH  034%=      5-min Rain = 0
KCA2 121508Z 15006KT 33/15 A2997 RMK A01 T03320153  RH  034%=      5-min Rain = 0
KCA2 121509Z 16005KT 33/15 A2997 RMK A01 T03340153  RH  034%=      5-min Rain = 0
KCA2 121510Z 15006KT 34/15 A2997 RMK A01 T03350153  RH  034%=      5-min Rain = 0
KCA2 121511Z 14003KT 34/15 A2997 RMK A01 T03350152  RH  033%=      5-min Rain = 0
KCA2 121512Z 17004KT 34/15 A2997 RMK A01 T03360153  RH  033%=      5-min Rain = 0
KCA2 121513Z 15005KT 34/15 A2997 RMK A01 T03370154  RH  033%=      5-min Rain = 0
KCA2 121514Z 13004KT 34/16 A2997 RMK A01 T03390155  RH  033%=      5-min Rain = 0
KCA2 121515Z 14003KT 34/15 A2997 RMK A01 T03410154  RH  033%=      5-min Rain = 0
KCA2 121516Z 16006KT 34/15 A2997 RMK A01 T03410154  RH  033%=      5-min Rain = 0
KCA2 121517Z 13005KT 34/16 A2997 RMK A01 T03410155  RH  033%=      5-min Rain = 0
KCA2 121518Z 12004KT 34/15 A2997 RMK A01 T03420153  RH  032%=      5-min Rain = 0
KCA2 121519Z 15006KT 34/15 A2997 RMK A01 T03420153  RH  032%=      5-min Rain = 0
KCA2 121520Z 15004KT 34/15 A2998 RMK A01 T03410152  RH  032%=      5-min Rain = 0
KCA2 121521Z 18004KT 34/15 A2998 RMK A01 T03400152  RH  032%=      5-min Rain = 0
KCA2 121522Z 18002KT 34/15 A2998 RMK A01 T03380151  RH  032%=      5-min Rain = 0
KCA2 121523Z 17004KT 34/15 A2998 RMK A01 T03370151  RH  033%=      5-min Rain = 0
KCA2 121524Z 18005KT 34/15 A2998 RMK A01 T03380151  RH  033%=      5-min Rain = 0
KCA2 121525Z 17006KT 34/15 A2998 RMK A01 T03370151  RH  033%=      5-min Rain = 0
KCA2 121526Z 20003KT 34/15 A2998 RMK A01 T03360151  RH  033%=      5-min Rain = 0
KCA2 121527Z 18002KT 34/15 A2998 RMK A01 T03350151  RH  033%=      5-min Rain = 0
KCA2 121528Z 13004KT 34/15 A2998 RMK A01 T03360152  RH  033%=      5-min Rain = 0
KCA2 121529Z 14004KT 34/15 A2998 RMK A01 T03390153  RH  033%=      5-min Rain = 0
KCA2 121530Z 12006KT 34/15 A2997 RMK A01 T03420152  RH  032%=      5-min Rain = 0
KCA2 121531Z 11004KT 34/15 A2997 RMK A01 T03410151  RH  032%=      5-min Rain = 0
KCA2 121532Z 13006KT 34/15 A2997 RMK A01 T03400153  RH  033%=      5-min Rain = 0
KCA2 121533Z 14002KT 34/15 A2997 RMK A01 T03400152  RH  032%=      5-min Rain = 0
KCA2 121534Z 14001KT 34/15 A2997 RMK A01 T03400153  RH  033%=      5-min Rain = 0
KCA2 121535Z 14001KT 34/15 A2997 RMK A01 T03420154  RH  033%=      5-min Rain = 0
KCA2 121536Z 10002KT 34/15 A2997 RMK A01 T03440154  RH  032%=      5-min Rain = 0
KCA2 121537Z 11002KT 35/15 A2997 RMK A01 T03460153  RH  032%=      5-min Rain = 0
KCA2 121538Z 15005KT 35/15 A2997 RMK A01 T03480154  RH  031%=      5-min Rain = 0
KCA2 121539Z 16006KT 35/15 A2997 RMK A01 T03470154  RH  032%=      5-min Rain = 0
KCA2 121540Z 15005KT 35/15 A2997 RMK A01 T03450153  RH  032%=      5-min Rain = 0
KCA2 121541Z 17004KT 34/15 A2997 RMK A01 T03440153  RH  032%=      5-min Rain = 0
KCA2 121542Z 17004KT 34/15 A2997 RMK A01 T03420153  RH  032%=      5-min Rain = 0
KCA2 121543Z 17004KT 34/15 A2997 RMK A01 T03420153  RH  032%=      5-min Rain = 0
KCA2 121544Z 18003KT 34/15 A2997 RMK A01 T03430153  RH  032%=      5-min Rain = 0
KCA2 121545Z 19004KT 35/15 A2997 RMK A01 T03450154  RH  032%=      5-min Rain = 0
KCA2 121546Z 14004KT 35/15 A2997 RMK A01 T03450153  RH  032%=      5-min Rain = 0
KCA2 121547Z 14004KT 35/15 A2997 RMK A01 T03450153  RH  032%=      5-min Rain = 0
KCA2 121548Z 18001KT 35/15 A2997 RMK A01 T03470151  RH  031%=      5-min Rain = 0
KCA2 121549Z 12002KT 35/15 A2997 RMK A01 T03470152  RH  031%=      5-min Rain = 0
KCA2 121550Z 15003KT 35/15 A2997 RMK A01 T03480154  RH  031%=      5-min Rain = 0
KCA2 121551Z 12004KT 35/15 A2997 RMK A01 T03500152  RH  031%=      5-min Rain = 0
KCA2 121552Z 13003KT 35/15 A2997 RMK A01 T03470152  RH  031%=      5-min Rain = 0
KCA2 121553Z 14004KT 35/15 A2997 RMK A01 T03480153  RH  031%=      5-min Rain = 0
KCA2 121554Z 11007KT 35/15 A2997 RMK A01 T03490153  RH  031%=      5-min Rain = 0
KCA2 121555Z 10007KT 35/15 A2997 RMK A01 T03490152  RH  031%=      5-min Rain = 0
KCA2 121556Z 11005KT 35/15 A2997 RMK A01 T03470153  RH  031%=      5-min Rain = 0
KCA2 121557Z 09004KT 35/15 A2997 RMK A01 T03460153  RH  032%=      5-min Rain = 0
KCA2 121558Z 07003KT 34/15 A2997 RMK A01 T03440152  RH  032%=      5-min Rain = 0
KCA2 121559Z 08002KT 34/15 A2997 RMK A01 T03430152  RH  032%=      5-min Rain = 0
KCA2 121600Z 19002KT 34/15 A2997 RMK A01 T03430152  RH  032%=      5-min Rain = 0
KCA2 121601Z 21004KT 34/15 A2997 RMK A01 T03440152  RH  032%=      5-min Rain = 0
KCA2 121602Z 23003KT 35/15 A2997 RMK A01 T03450152  RH  032%=      5-min Rain = 0
KCA2 121603Z 22003KT 35/15 A2997 RMK A01 T03470152  RH  031%=      5-min Rain = 0
KCA2 121604Z 21002KT 35/15 A2997 RMK A01 T03480152  RH  031%=      5-min Rain = 0
KCA2 121605Z 16003KT 35/15 A2997 RMK A01 T03500153  RH  031%=      5-min Rain = 0
KCA2 121606Z 15004KT 35/15 A2997 RMK A01 T03520153  RH  030%=      5-min Rain = 0
KCA2 121607Z 13004KT 35/15 A2997 RMK A01 T03530152  RH  030%=      5-min Rain = 0
KCA2 121608Z 15003KT 35/15 A2997 RMK A01 T03520152  RH  030%=      5-min Rain = 0
KCA2 121609Z 18002KT 35/15 A2997 RMK A01 T03510151  RH  030%=      5-min Rain = 0
KCA2 121610Z 15003KT 35/15 A2997 RMK A01 T03500151  RH  031%=      5-min Rain = 0
KCA2 121611Z 16003KT 35/15 A2997 RMK A01 T03520151  RH  030%=      5-min Rain = 0
KCA2 121612Z 18004KT 35/15 A2997 RMK A01 T03540151  RH  030%=      5-min Rain = 0
KCA2 121613Z 15004KT 36/15 A2997 RMK A01 T03560150  RH  029%=      5-min Rain = 0
KCA2 121614Z 16003KT 36/15 A2997 RMK A01 T03580150  RH  029%=      5-min Rain = 0
KCA2 121615Z 15003KT 36/15 A2997 RMK A01 T03580151  RH  029%=      5-min Rain = 0
KCA2 121616Z 18002KT 36/15 A2997 RMK A01 T03560150  RH  029%=      5-min Rain = 0
KCA2 121617Z 17002KT 36/15 A2997 RMK A01 T03550151  RH  030%=      5-min Rain = 0
KCA2 121618Z 07003KT 36/15 A2997 RMK A01 T03570151  RH  029%=      5-min Rain = 0
KCA2 121619Z 03002KT 36/15 A2997 RMK A01 T03580149  RH  029%=      5-min Rain = 0
KCA2 121620Z 03002KT 36/15 A2997 RMK A01 T03570149  RH  029%=      5-min Rain = 0
KCA2 121621Z 08001KT 36/15 A2997 RMK A01 T03590151  RH  029%=      5-min Rain = 0
KCA2 121622Z 05001KT 36/15 A2997 RMK A01 T03610151  RH  029%=      5-min Rain = 0
KCA2 121623Z 14001KT 36/15 A2997 RMK A01 T03630152  RH  029%=      5-min Rain = 0
KCA2 121624Z 15002KT 37/15 A2997 RMK A01 T03660153  RH  028%=      5-min Rain = 0
KCA2 121625Z 16003KT 37/15 A2997 RMK A01 T03680152  RH  028%=      5-min Rain = 0
KCA2 121626Z 17002KT 37/15 A2997 RMK A01 T03680153  RH  028%=      5-min Rain = 0
KCA2 121627Z 18002KT 37/15 A2997 RMK A01 T03650152  RH  028%=      5-min Rain = 0
KCA2 121628Z 17002KT 36/15 A2997 RMK A01 T03620151  RH  029%=      5-min Rain = 0
KCA2 121629Z 17000KT 36/15 A2997 RMK A01 T03600151  RH  029%=      5-min Rain = 0
KCA2 121630Z 22004KT 36/15 A2997 RMK A01 T03610151  RH  029%=      5-min Rain = 0
KCA2 121631Z 27005KT 36/15 A2997 RMK A01 T03600150  RH  029%=      5-min Rain = 0
KCA2 121632Z 32004KT 36/15 A2997 RMK A01 T03620150  RH  028%=      5-min Rain = 0
KCA2 121633Z 34004KT 36/15 A2997 RMK A01 T03630149  RH  028%=      5-min Rain = 0
KCA2 121634Z 36003KT 36/15 A2997 RMK A01 T03610148  RH  028%=      5-min Rain = 0
KCA2 121635Z 02001KT 36/15 A2997 RMK A01 T03610148  RH  028%=      5-min Rain = 0
KCA2 121636Z 09001KT 36/15 A2997 RMK A01 T03640150  RH  028%=      5-min Rain = 0
KCA2 121637Z 07001KT 37/15 A2997 RMK A01 T03660150  RH  028%=      5-min Rain = 0
KCA2 121638Z 16002KT 37/15 A2997 RMK A01 T03670151  RH  028%=      5-min Rain = 0
KCA2 121639Z 19003KT 37/15 A2997 RMK A01 T03680151  RH  028%=      5-min Rain = 0
KCA2 121640Z 17004KT 37/15 A2997 RMK A01 T03670151  RH  028%=      5-min Rain = 0
KCA2 121641Z 18003KT 37/15 A2997 RMK A01 T03670150  RH  028%=      5-min Rain = 0
KCA2 121642Z 21003KT 37/15 A2997 RMK A01 T03660151  RH  028%=      5-min Rain = 0
KCA2 121643Z 20002KT 37/15 A2997 RMK A01 T03650150  RH  028%=      5-min Rain = 0
KCA2 121644Z 19003KT 37/15 A2997 RMK A01 T03650151  RH  028%=      5-min Rain = 0
KCA2 121645Z 17002KT 37/15 A2997 RMK A01 T03650150  RH  028%=      5-min Rain = 0
KCA2 121646Z 19003KT 37/15 A2997 RMK A01 T03650150  RH  028%=      5-min Rain = 0
KCA2 121647Z 16002KT 37/15 A2997 RMK A01 T03650150  RH  028%=      5-min Rain = 0
KCA2 121648Z 15003KT 37/15 A2997 RMK A01 T03650150  RH  028%=      5-min Rain = 0
KCA2 121649Z 18002KT 37/15 A2997 RMK A01 T03650150  RH  028%=      5-min Rain = 0
KCA2 121650Z 21001KT 37/15 A2997 RMK A01 T03660149  RH  028%=      5-min Rain = 0
KCA2 121651Z 22003KT 37/15 A2997 RMK A01 T03680149  RH  027%=      5-min Rain = 0
KCA2 121652Z 22006KT 37/15 A2997 RMK A01 T03690148  RH  027%=      5-min Rain = 0
KCA2 121653Z 22002KT 37/15 A2997 RMK A01 T03680148  RH  027%=      5-min Rain = 0
KCA2 121654Z 23004KT 37/15 A2997 RMK A01 T03660147  RH  027%=      5-min Rain = 0
KCA2 121655Z 22004KT 36/15 A2997 RMK A01 T03640148  RH  028%=      5-min Rain = 0
KCA2 121656Z 27002KT 36/15 A2997 RMK A01 T03620148  RH  028%=      5-min Rain = 0
KCA2 121657Z 25004KT 36/15 A2996 RMK A01 T03630149  RH  028%=      5-min Rain = 0
KCA2 121658Z 21002KT 36/15 A2996 RMK A01 T03640149  RH  028%=      5-min Rain = 0
KCA2 121659Z 27003KT 37/15 A2996 RMK A01 T03650149  RH  028%=      5-min Rain = 0
KCA2 121700Z 27004KT 37/15 A2996 RMK A01 T03670149  RH  027%=      5-min Rain = 0
KCA2 121701Z 30002KT 37/15 A2996 RMK A01 T03650148  RH  028%=      5-min Rain = 0
KCA2 121702Z 33002KT 36/15 A2996 RMK A01 T03630147  RH  028%=      5-min Rain = 0
KCA2 121703Z 07000KT 37/15 A2996 RMK A01 T03650148  RH  028%=      5-min Rain = 0
KCA2 121704Z 10002KT 37/15 A2996 RMK A01 T03660148  RH  027%=      5-min Rain = 0
KCA2 121705Z 14003KT 37/15 A2996 RMK A01 T03660145  RH  027%=      5-min Rain = 0
KCA2 121706Z 11004KT 37/15 A2996 RMK A01 T03690145  RH  027%=      5-min Rain = 0
KCA2 121707Z 13003KT 37/15 A2996 RMK A01 T03700145  RH  026%=      5-min Rain = 0
KCA2 121708Z 11002KT 37/14 A2996 RMK A01 T03690144  RH  026%=      5-min Rain = 0
KCA2 121709Z 11003KT 37/14 A2996 RMK A01 T03690144  RH  026%=      5-min Rain = 0
KCA2 121710Z 12002KT 37/14 A2996 RMK A01 T03710144  RH  026%=      5-min Rain = 0
KCA2 121711Z 14003KT 37/14 A2996 RMK A01 T03730144  RH  026%=      5-min Rain = 0
KCA2 121712Z 12002KT 37/14 A2996 RMK A01 T03730143  RH  026%=      5-min Rain = 0
KCA2 121713Z 08001KT 37/14 A2996 RMK A01 T03700143  RH  026%=      5-min Rain = 0
KCA2 121714Z 06003KT 37/14 A2996 RMK A01 T03700144  RH  026%=      5-min Rain = 0
KCA2 121715Z 02003KT 37/15 A2996 RMK A01 T03710145  RH  026%=      5-min Rain = 0
KCA2 121716Z 33002KT 37/15 A2996 RMK A01 T03740147  RH  026%=      5-min Rain = 0
KCA2 121717Z 34003KT 37/15 A2996 RMK A01 T03740145  RH  026%=      5-min Rain = 0
KCA2 121718Z 32002KT 37/15 A2996 RMK A01 T03730145  RH  026%=      5-min Rain = 0
KCA2 121719Z 34001KT 37/15 A2996 RMK A01 T03730145  RH  026%=      5-min Rain = 0
KCA2 121720Z 03001KT 38/15 A2996 RMK A01 T03760145  RH  026%=      5-min Rain = 0
KCA2 121721Z 08002KT 38/15 A2996 RMK A01 T03760145  RH  025%=      5-min Rain = 0
KCA2 121722Z 09003KT 38/15 A2996 RMK A01 T03750145  RH  026%=      5-min Rain = 0
KCA2 121723Z 09004KT 38/14 A2996 RMK A01 T03770143  RH  025%=      5-min Rain = 0
KCA2 121724Z 09003KT 38/14 A2996 RMK A01 T03780142  RH  025%=      5-min Rain = 0
KCA2 121725Z 09004KT 38/14 A2996 RMK A01 T03780143  RH  025%=      5-min Rain = 0
KCA2 121726Z 14003KT 38/14 A2996 RMK A01 T03760143  RH  025%=      5-min Rain = 0
KCA2 121727Z 23003KT 38/15 A2996 RMK A01 T03750145  RH  026%=      5-min Rain = 0
KCA2 121728Z 25002KT 38/15 A2996 RMK A01 T03760146  RH  026%=      5-min Rain = 0
KCA2 121729Z 30000KT 38/15 A2996 RMK A01 T03780147  RH  025%=      5-min Rain = 0
KCA2 121730Z 07002KT 38/15 A2996 RMK A01 T03790146  RH  025%=      5-min Rain = 0
KCA2 121731Z 08004KT 38/14 A2996 RMK A01 T03800142  RH  024%=      5-min Rain = 0
KCA2 121732Z 10004KT 38/14 A2996 RMK A01 T03790139  RH  024%=      5-min Rain = 0
KCA2 121733Z 11002KT 38/14 A2995 RMK A01 T03770139  RH  024%=      5-min Rain = 0
KCA2 121734Z 04002KT 38/14 A2995 RMK A01 T03770139  RH  024%=      5-min Rain = 0
KCA2 121735Z 04002KT 38/14 A2995 RMK A01 T03780139  RH  024%=      5-min Rain = 0
KCA2 121736Z 31003KT 38/14 A2995 RMK A01 T03790142  RH  025%=      5-min Rain = 0
KCA2 121737Z 32002KT 38/14 A2995 RMK A01 T03810143  RH  025%=      5-min Rain = 0
KCA2 121738Z 04001KT 38/14 A2995 RMK A01 T03830141  RH  024%=      5-min Rain = 0
KCA2 121739Z 35002KT 38/14 A2995 RMK A01 T03840143  RH  024%=      5-min Rain = 0
KCA2 121740Z 34003KT 39/14 A2995 RMK A01 T03850144  RH  024%=      5-min Rain = 0
KCA2 121741Z 29004KT 39/14 A2995 RMK A01 T03880144  RH  024%=      5-min Rain = 0
KCA2 121742Z 28004KT 39/14 A2995 RMK A01 T03870144  RH  024%=      5-min Rain = 0
KCA2 121743Z 28004KT 39/14 A2995 RMK A01 T03880144  RH  024%=      5-min Rain = 0
KCA2 121744Z 28004KT 39/14 A2995 RMK A01 T03880143  RH  024%=      5-min Rain = 0
KCA2 121745Z 31004KT 39/14 A2995 RMK A01 T03850142  RH  024%=      5-min Rain = 0
KCA2 121746Z 27003KT 38/14 A2995 RMK A01 T03840143  RH  024%=      5-min Rain = 0
KCA2 121747Z 25004KT 39/14 A2995 RMK A01 T03880143  RH  024%=      5-min Rain = 0
KCA2 121748Z 24006KT 39/14 A2995 RMK A01 T03860141  RH  024%=      5-min Rain = 0
KCA2 121749Z 23004KT 38/14 A2995 RMK A01 T03790140  RH  024%=      5-min Rain = 0
KCA2 121750Z 25004KT 38/14 A2995 RMK A01 T03800142  RH  024%=      5-min Rain = 0
KCA2 121751Z 24002KT 38/14 A2995 RMK A01 T03820142  RH  024%=      5-min Rain = 0
KCA2 121752Z 25001KT 38/14 A2995 RMK A01 T03820142  RH  024%=      5-min Rain = 0
KCA2 121753Z 21002KT 38/14 A2995 RMK A01 T03820142  RH  024%=      5-min Rain = 0
KCA2 121754Z 28003KT 38/14 A2995 RMK A01 T03830142  RH  024%=      5-min Rain = 0
KCA2 121755Z 28006KT 38/14 A2995 RMK A01 T03840142  RH  024%=      5-min Rain = 0
KCA2 121756Z 29006KT 39/14 A2995 RMK A01 T03880143  RH  024%=      5-min Rain = 0
KCA2 121757Z 29006KT 39/14 A2994 RMK A01 T03880142  RH  023%=      5-min Rain = 0
KCA2 121758Z 29007KT 39/14 A2994 RMK A01 T03880143  RH  023%=      5-min Rain = 0
KCA2 121759Z 29008KT 39/14 A2994 RMK A01 T03890142  RH  023%=      5-min Rain = 0
KCA2 121800Z 29007KT 39/14 A2994 RMK A01 T03890141  RH  023%=      5-min Rain = 0
KCA2 121801Z 30005KT 39/14 A2994 RMK A01 T03850140  RH  024%=      5-min Rain = 0
KCA2 121802Z 25005KT 39/14 A2994 RMK A01 T03850142  RH  024%=      5-min Rain = 0
KCA2 121803Z 25005KT 39/14 A2994 RMK A01 T03900142  RH  023%=      5-min Rain = 0
KCA2 121804Z 25004KT 39/14 A2994 RMK A01 T03870140  RH  023%=      5-min Rain = 0
KCA2 121805Z 21005KT 38/14 A2994 RMK A01 T03840139  RH  023%=      5-min Rain = 0
KCA2 121806Z 17003KT 38/14 A2994 RMK A01 T03830139  RH  024%=      5-min Rain = 0
KCA2 121807Z 30004KT 38/14 A2994 RMK A01 T03820140  RH  024%=      5-min Rain = 0
KCA2 121808Z 32007KT 39/14 A2994 RMK A01 T03850141  RH  024%=      5-min Rain = 0
KCA2 121809Z 32008KT 39/14 A2994 RMK A01 T03870141  RH  023%=      5-min Rain = 0
KCA2 121810Z 32006KT 39/14 A2994 RMK A01 T03900141  RH  023%=      5-min Rain = 0
KCA2 121811Z 29004KT 39/14 A2994 RMK A01 T03900141  RH  023%=      5-min Rain = 0
KCA2 121812Z 29005KT 39/14 A2994 RMK A01 T03890141  RH  023%=      5-min Rain = 0
KCA2 121813Z 29005KT 39/14 A2994 RMK A01 T03880139  RH  023%=      5-min Rain = 0
KCA2 121814Z 29006KT 39/14 A2994 RMK A01 T03860140  RH  023%=      5-min Rain = 0
KCA2 121815Z 28007KT 39/14 A2994 RMK A01 T03870140  RH  023%=      5-min Rain = 0
KCA2 121816Z 25004KT 39/14 A2994 RMK A01 T03880140  RH  023%=      5-min Rain = 0
KCA2 121817Z 26003KT 39/14 A2994 RMK A01 T03860139  RH  023%=      5-min Rain = 0
KCA2 121818Z 30000KT 39/14 A2994 RMK A01 T03850140  RH  023%=      5-min Rain = 0
KCA2 121819Z 28003KT 39/14 A2994 RMK A01 T03850141  RH  024%=      5-min Rain = 0
KCA2 121820Z 26005KT 39/14 A2994 RMK A01 T03900143  RH  023%=      5-min Rain = 0
KCA2 121821Z 25007KT 39/14 A2994 RMK A01 T03920142  RH  023%=      5-min Rain = 0
KCA2 121822Z 25007KT 39/14 A2994 RMK A01 T03920141  RH  023%=      5-min Rain = 0
KCA2 121823Z 26005KT 39/14 A2994 RMK A01 T03910141  RH  023%=      5-min Rain = 0
KCA2 121824Z 27005KT 39/14 A2994 RMK A01 T03910142  RH  023%=      5-min Rain = 0
KCA2 121825Z 30003KT 39/14 A2993 RMK A01 T03920140  RH  023%=      5-min Rain = 0
KCA2 121826Z 29002KT 39/14 A2993 RMK A01 T03890140  RH  023%=      5-min Rain = 0
KCA2 121827Z 31002KT 39/14 A2993 RMK A01 T03880140  RH  023%=      5-min Rain = 0
KCA2 121828Z 34005KT 39/14 A2993 RMK A01 T03890139  RH  023%=      5-min Rain = 0
KCA2 121829Z 33004KT 39/14 A2993 RMK A01 T03920138  RH  022%=      5-min Rain = 0
KCA2 121830Z 24002KT 39/14 A2993 RMK A01 T03900136  RH  022%=      5-min Rain = 0
KCA2 121831Z 30004KT 39/14 A2993 RMK A01 T03900138  RH  022%=      5-min Rain = 0
KCA2 121832Z 32008KT 39/14 A2993 RMK A01 T03920139  RH  022%=      5-min Rain = 0
KCA2 121833Z 31005KT 39/14 A2993 RMK A01 T03910137  RH  022%=      5-min Rain = 0
KCA2 121834Z 33004KT 39/14 A2993 RMK A01 T03930139  RH  022%=      5-min Rain = 0
KCA2 121835Z 34004KT 40/14 A2993 RMK A01 T03950138  RH  022%=      5-min Rain = 0
KCA2 121836Z 36004KT 39/14 A2993 RMK A01 T03930137  RH  022%=      5-min Rain = 0
KCA2 121837Z 02003KT 39/14 A2993 RMK A01 T03910136  RH  022%=      5-min Rain = 0
KCA2 121838Z 34006KT 39/14 A2993 RMK A01 T03910136  RH  022%=      5-min Rain = 0
KCA2 121839Z 34005KT 39/14 A2993 RMK A01 T03920137  RH  022%=      5-min Rain = 0
KCA2 121840Z 35004KT 39/14 A2993 RMK A01 T03930136  RH  022%=      5-min Rain = 0
KCA2 121841Z 29002KT 39/14 A2993 RMK A01 T03930135  RH  022%=      5-min Rain = 0
KCA2 121842Z 29004KT 40/14 A2993 RMK A01 T03950136  RH  022%=      5-min Rain = 0
KCA2 121843Z 36005KT 40/14 A2993 RMK A01 T03950135  RH  021%=      5-min Rain = 0
KCA2 121844Z 35007KT 40/14 A2992 RMK A01 T03950135  RH  022%=      5-min Rain = 0
KCA2 121845Z 34008KT 40/13 A2993 RMK A01 T03990133  RH  021%=      5-min Rain = 0
KCA2 121846Z 33006KT 40/13 A2992 RMK A01 T03970130  RH  021%=      5-min Rain = 0
KCA2 121847Z 33008KT 40/13 A2992 RMK A01 T03960134  RH  021%=      5-min Rain = 0
KCA2 121848Z 35008KT 40/14 A2992 RMK A01 T04010136  RH  021%=      5-min Rain = 0
KCA2 121849Z 00006KT 40/13 A2992 RMK A01 T04020134  RH  021%=      5-min Rain = 0
KCA2 121850Z 00004KT 40/13 A2992 RMK A01 T03980133  RH  021%=      5-min Rain = 0
KCA2 121851Z 34003KT 40/13 A2992 RMK A01 T03960134  RH  021%=      5-min Rain = 0
KCA2 121852Z 32002KT 39/13 A2992 RMK A01 T03940134  RH  021%=      5-min Rain = 0
KCA2 121853Z 02006KT 40/14 A2992 RMK A01 T03960135  RH  021%=      5-min Rain = 0
KCA2 121854Z 03005KT 40/14 A2992 RMK A01 T03990136  RH  021%=      5-min Rain = 0
KCA2 121855Z 01003KT 40/13 A2992 RMK A01 T03980134  RH  021%=      5-min Rain = 0
KCA2 121856Z 05004KT 40/13 A2992 RMK A01 T03960134  RH  021%=      5-min Rain = 0
KCA2 121857Z 07004KT 40/13 A2992 RMK A01 T03960133  RH  021%=      5-min Rain = 0
KCA2 121858Z 08003KT 39/13 A2992 RMK A01 T03940132  RH  021%=      5-min Rain = 0
KCA2 121859Z 05003KT 39/13 A2992 RMK A01 T03920134  RH  022%=      5-min Rain = 0
KCA2 121900Z 04006KT 39/14 A2992 RMK A01 T03920135  RH  022%=      5-min Rain = 0
KCA2 121901Z 35005KT 39/14 A2992 RMK A01 T03940137  RH  022%=      5-min Rain = 0
KCA2 121902Z 35004KT 40/14 A2992 RMK A01 T03980137  RH  021%=      5-min Rain = 0
KCA2 121903Z 01003KT 40/14 A2992 RMK A01 T04000138  RH  021%=      5-min Rain = 0
KCA2 121904Z 05003KT 40/14 A2992 RMK A01 T04000137  RH  021%=      5-min Rain = 0
KCA2 121905Z 07004KT 40/14 A2992 RMK A01 T04020136  RH  021%=      5-min Rain = 0
KCA2 121906Z 01004G10KT 40/14 A2992 RMK A01 T04010136  RH  021%=      5-min Rain = 0
KCA2 121907Z 01007KT 40/14 A2992 RMK A01 T04020136  RH  021%=      5-min Rain = 0
KCA2 121908Z 03006KT 41/14 A2991 RMK A01 T04050136  RH  021%=      5-min Rain = 0
KCA2 121909Z 00006KT 40/14 A2991 RMK A01 T04040136  RH  021%=      5-min Rain = 0
KCA2 121910Z 01006KT 40/14 A2991 RMK A01 T04020136  RH  021%=      5-min Rain = 0
KCA2 121911Z 01005KT 40/14 A2991 RMK A01 T04010136  RH  021%=      5-min Rain = 0
KCA2 121912Z 01007KT 40/14 A2991 RMK A01 T04040136  RH  021%=      5-min Rain = 0
KCA2 121913Z 35009KT 41/14 A2991 RMK A01 T04070137  RH  020%=      5-min Rain = 0
KCA2 121914Z 35007KT 41/13 A2991 RMK A01 T04050134  RH  020%=      5-min Rain = 0
KCA2 121915Z 35005KT 40/13 A2991 RMK A01 T03990133  RH  021%=      5-min Rain = 0
KCA2 121916Z 02003KT 40/13 A2991 RMK A01 T03980133  RH  021%=      5-min Rain = 0
KCA2 121917Z 01002KT 40/14 A2991 RMK A01 T04020135  RH  021%=      5-min Rain = 0
KCA2 121918Z 36003KT 41/14 A2991 RMK A01 T04060135  RH  020%=      5-min Rain = 0
KCA2 121919Z 00003KT 40/13 A2991 RMK A01 T04040133  RH  020%=      5-min Rain = 0
KCA2 121920Z 02003KT 40/13 A2991 RMK A01 T04020133  RH  020%=      5-min Rain = 0
KCA2 121921Z 06002KT 40/13 A2991 RMK A01 T03990132  RH  021%=      5-min Rain = 0
KCA2 121922Z 07002KT 40/13 A2991 RMK A01 T03980132  RH  021%=      5-min Rain = 0
KCA2 121923Z 08001KT 40/13 A2991 RMK A01 T03980132  RH  021%=      5-min Rain = 0
KCA2 121924Z 12000KT 40/13 A299 RMK A01 T03990133  RH  021%=      5-min Rain = 0
KCA2 121925Z 11002KT 40/13 A299 RMK A01 T03980132  RH  021%=      5-min Rain = 0
KCA2 121926Z 12002KT 40/13 A299 RMK A01 T03990133  RH  021%=      5-min Rain = 0
KCA2 121927Z 12002KT 40/13 A299 RMK A01 T04010134  RH  021%=      5-min Rain = 0
KCA2 121928Z 11002KT 40/13 A299 RMK A01 T04040134  RH  020%=      5-min Rain = 0
KCA2 121929Z 19003KT 41/14 A299 RMK A01 T04050135  RH  020%=      5-min Rain = 0
KCA2 121930Z 21003KT 41/14 A299 RMK A01 T04100135  RH  020%=      5-min Rain = 0
KCA2 121931Z 27003KT 41/14 A299 RMK A01 T04120136  RH  020%=      5-min Rain = 0
KCA2 121932Z 31004KT 41/14 A299 RMK A01 T04140135  RH  019%=      5-min Rain = 0
KCA2 121933Z 30008KT 41/13 A299 RMK A01 T04130134  RH  019%=      5-min Rain = 0
KCA2 121934Z 31006KT 41/13 A299 RMK A01 T04110133  RH  020%=      5-min Rain = 0
KCA2 121935Z 28008KT 41/14 A299 RMK A01 T04100135  RH  020%=      5-min Rain = 0
KCA2 121936Z 28008KT 41/13 A299 RMK A01 T04110134  RH  020%=      5-min Rain = 0
KCA2 121937Z 28007KT 41/13 A299 RMK A01 T04090132  RH  020%=      5-min Rain = 0
KCA2 121938Z 29006KT 40/13 A299 RMK A01 T04030130  RH  020%=      5-min Rain = 0
KCA2 121939Z 31004KT 40/13 A299 RMK A01 T04020131  RH  020%=      5-min Rain = 0
KCA2 121940Z 26002KT 40/13 A299 RMK A01 T04030132  RH  020%=      5-min Rain = 0
KCA2 121941Z 26007KT 41/13 A299 RMK A01 T04050133  RH  020%=      5-min Rain = 0
KCA2 121942Z 27006KT 40/13 A299 RMK A01 T04040132  RH  020%=      5-min Rain = 0
KCA2 121943Z 29005KT 40/13 A299 RMK A01 T04010132  RH  020%=      5-min Rain = 0
KCA2 121944Z 28005KT 40/13 A299 RMK A01 T04010133  RH  021%=      5-min Rain = 0
KCA2 121945Z 26007KT 40/13 A299 RMK A01 T04020133  RH  020%=      5-min Rain = 0
KCA2 121946Z 29005KT 40/13 A299 RMK A01 T04030132  RH  020%=      5-min Rain = 0
KCA2 121947Z 29003KT 40/13 A2989 RMK A01 T04030132  RH  020%=      5-min Rain = 0
KCA2 121948Z 25003KT 41/13 A2989 RMK A01 T04060133  RH  020%=      5-min Rain = 0
KCA2 121949Z 27002KT 41/13 A2989 RMK A01 T04070132  RH  020%=      5-min Rain = 0
KCA2 121950Z 18002KT 41/13 A2989 RMK A01 T04060130  RH  020%=      5-min Rain = 0
KCA2 121951Z 23004KT 41/13 A2989 RMK A01 T04060129  RH  019%=      5-min Rain = 0
KCA2 121952Z 22004KT 41/13 A2989 RMK A01 T04050128  RH  019%=      5-min Rain = 0
KCA2 121953Z 18003KT 40/13 A2989 RMK A01 T04030126  RH  019%=      5-min Rain = 0
KCA2 121954Z 18003KT 40/13 A2989 RMK A01 T04020126  RH  020%=      5-min Rain = 0
KCA2 121955Z 27005KT 41/13 A2989 RMK A01 T04050128  RH  019%=      5-min Rain = 0
KCA2 121956Z 27002KT 41/12 A2989 RMK A01 T04060124  RH  019%=      5-min Rain = 0
KCA2 121957Z 32001KT 40/12 A2989 RMK A01 T04030124  RH  019%=      5-min Rain = 0
KCA2 121958Z 33002KT 41/13 A2989 RMK A01 T04050126  RH  019%=      5-min Rain = 0
KCA2 121959Z 23002KT 41/13 A2988 RMK A01 T04080127  RH  019%=      5-min Rain = 0
KCA2 122000Z 23007KT 41/13 A2988 RMK A01 T04100129  RH  019%=      5-min Rain = 0
KCA2 122001Z 23007KT 41/13 A2988 RMK A01 T04100129  RH  019%=      5-min Rain = 0
KCA2 122002Z 22005KT 41/13 A2988 RMK A01 T04100129  RH  019%=      5-min Rain = 0
KCA2 122003Z 19005KT 41/13 A2988 RMK A01 T04090128  RH  019%=      5-min Rain = 0
KCA2 122004Z 19004KT 41/13 A2988 RMK A01 T04080128  RH  019%=      5-min Rain = 0
KCA2 122005Z 13003KT 41/13 A2988 RMK A01 T04060128  RH  019%=      5-min Rain = 0
KCA2 122006Z 17003KT 41/13 A2988 RMK A01 T04060129  RH  020%=      5-min Rain = 0
KCA2 122007Z 20003KT 41/13 A2988 RMK A01 T04100128  RH  019%=      5-min Rain = 0
KCA2 122008Z 16003KT 41/13 A2988 RMK A01 T04130128  RH  019%=      5-min Rain = 0
KCA2 122009Z 10004KT 41/13 A2988 RMK A01 T04130128  RH  019%=      5-min Rain = 0
KCA2 122010Z 13004KT 41/13 A2988 RMK A01 T04140129  RH  019%=      5-min Rain = 0
KCA2 122011Z 17005KT 42/13 A2988 RMK A01 T04160129  RH  018%=      5-min Rain = 0
KCA2 122012Z 07004KT 42/13 A2988 RMK A01 T04190127  RH  018%=      5-min Rain = 0
KCA2 122013Z 34004KT 42/12 A2988 RMK A01 T04180123  RH  018%=      5-min Rain = 0
KCA2 122014Z 01003KT 42/12 A2988 RMK A01 T04200124  RH  018%=      5-min Rain = 0
KCA2 122015Z 03003KT 42/12 A2988 RMK A01 T04210121  RH  017%=      5-min Rain = 0
KCA2 122016Z 04005KT 42/12 A2988 RMK A01 T04210120  RH  017%=      5-min Rain = 0
KCA2 122017Z 04004KT 42/12 A2988 RMK A01 T04180116  RH  017%=      5-min Rain = 0
KCA2 122018Z 03002KT 42/11 A2987 RMK A01 T04190114  RH  017%=      5-min Rain = 0
KCA2 122019Z 05005KT 42/11 A2987 RMK A01 T04180114  RH  017%=      5-min Rain = 0
KCA2 122020Z 02004KT 42/11 A2987 RMK A01 T04150114  RH  017%=      5-min Rain = 0
KCA2 122021Z 03003KT 41/11 A2987 RMK A01 T04110112  RH  017%=      5-min Rain = 0
KCA2 122022Z 01004KT 41/11 A2987 RMK A01 T04100114  RH  017%=      5-min Rain = 0
KCA2 122023Z 36003KT 41/12 A2987 RMK A01 T04120118  RH  018%=      5-min Rain = 0
KCA2 122024Z 33002KT 41/12 A2987 RMK A01 T04110119  RH  018%=      5-min Rain = 0
KCA2 122025Z 03000KT 41/12 A2987 RMK A01 T04110119  RH  018%=      5-min Rain = 0
KCA2 122026Z 32001KT 41/12 A2987 RMK A01 T04140119  RH  018%=      5-min Rain = 0
KCA2 122027Z 01001KT 42/12 A2987 RMK A01 T04170121  RH  017%=      5-min Rain = 0
KCA2 122028Z 04004KT 42/12 A2987 RMK A01 T04190122  RH  017%=      5-min Rain = 0
KCA2 122029Z 03004KT 42/12 A2987 RMK A01 T04200121  RH  017%=      5-min Rain = 0
KCA2 122030Z 36001KT 42/12 A2986 RMK A01 T04200118  RH  017%=      5-min Rain = 0
KCA2 122031Z 29001KT 42/12 A2986 RMK A01 T04200121  RH  017%=      5-min Rain = 0
KCA2 122032Z 35001KT 42/12 A2986 RMK A01 T04220121  RH  017%=      5-min Rain = 0
KCA2 122033Z 32003KT 42/12 A2986 RMK A01 T04220116  RH  016%=      5-min Rain = 0
KCA2 122034Z 35003KT 42/11 A2986 RMK A01 T04210108  RH  016%=      5-min Rain = 0
KCA2 122035Z 35002KT 42/11 A2986 RMK A01 T04190110  RH  016%=      5-min Rain = 0
KCA2 122036Z 21001KT 42/11 A2986 RMK A01 T04160109  RH  016%=      5-min Rain = 0
KCA2 122037Z 16003KT 42/11 A2986 RMK A01 T04170110  RH  016%=      5-min Rain = 0
KCA2 122038Z 15003KT 42/11 A2986 RMK A01 T04170112  RH  016%=      5-min Rain = 0
KCA2 122039Z 14003KT 42/11 A2986 RMK A01 T04150110  RH  016%=      5-min Rain = 0
KCA2 122040Z 04004KT 42/11 A2986 RMK A01 T04160111  RH  016%=      5-min Rain = 0
KCA2 122041Z 03005KT 42/11 A2986 RMK A01 T04200113  RH  016%=      5-min Rain = 0
KCA2 122042Z 34005KT 42/11 A2986 RMK A01 T04240113  RH  016%=      5-min Rain = 0
KCA2 122043Z 31006KT 43/11 A2986 RMK A01 T04260114  RH  016%=      5-min Rain = 0
KCA2 122044Z 35006KT 42/11 A2986 RMK A01 T04230109  RH  016%=      5-min Rain = 0
KCA2 122045Z 36004KT 42/11 A2986 RMK A01 T04220106  RH  015%=      5-min Rain = 0
KCA2 122046Z 00007KT 42/11 A2986 RMK A01 T04220106  RH  015%=      5-min Rain = 0
KCA2 122047Z 00008KT 42/11 A2986 RMK A01 T04240106  RH  015%=      5-min Rain = 0
KCA2 122048Z 00007KT 42/11 A2986 RMK A01 T04220106  RH  015%=      5-min Rain = 0
KCA2 122049Z 03004KT 42/11 A2985 RMK A01 T04190106  RH  016%=      5-min Rain = 0
KCA2 122050Z 02003KT 41/11 A2985 RMK A01 T04140105  RH  016%=      5-min Rain = 0
KCA2 122051Z 36004KT 41/11 A2985 RMK A01 T04120106  RH  016%=      5-min Rain = 0
KCA2 122052Z 01003KT 42/11 A2985 RMK A01 T04170109  RH  016%=      5-min Rain = 0
KCA2 122053Z 34004KT 42/11 A2985 RMK A01 T04200109  RH  016%=      5-min Rain = 0
KCA2 122054Z 33007KT 42/11 A2985 RMK A01 T04200111  RH  016%=      5-min Rain = 0
KCA2 122055Z 35006KT 42/11 A2985 RMK A01 T04230111  RH  016%=      5-min Rain = 0
KCA2 122056Z 32005KT 42/11 A2985 RMK A01 T04240109  RH  016%=      5-min Rain = 0
KCA2 122057Z 33005KT 42/11 A2985 RMK A01 T04200108  RH  016%=      5-min Rain = 0
KCA2 122058Z 35006KT 42/11 A2985 RMK A01 T04220111  RH  016%=      5-min Rain = 0
KCA2 122059Z 34009KT 43/11 A2985 RMK A01 T04270112  RH  016%=      5-min Rain = 0
KCA2 122100Z 32006KT 43/11 A2985 RMK A01 T04270111  RH  016%=      5-min Rain = 0
KCA2 122101Z 32003KT 42/11 A2985 RMK A01 T04230109  RH  016%=      5-min Rain = 0
KCA2 122102Z 31002KT 42/11 A2985 RMK A01 T04210111  RH  016%=      5-min Rain = 0
KCA2 122103Z 30002KT 42/11 A2985 RMK A01 T04220111  RH  016%=      5-min Rain = 0
KCA2 122104Z 21002KT 42/11 A2985 RMK A01 T04200108  RH  016%=      5-min Rain = 0
KCA2 122105Z 19001KT 42/11 A2985 RMK A01 T04170105  RH  016%=      5-min Rain = 0
KCA2 122106Z 35004KT 42/11 A2985 RMK A01 T04170108  RH  016%=      5-min Rain = 0
KCA2 122107Z 01008KT 42/11 A2985 RMK A01 T04210113  RH  016%=      5-min Rain = 0
KCA2 122108Z 35007KT 42/11 A2985 RMK A01 T04230114  RH  016%=      5-min Rain = 0
KCA2 122109Z 33004KT 42/11 A2985 RMK A01 T04230113  RH  016%=      5-min Rain = 0
KCA2 122110Z 22001KT 42/11 A2985 RMK A01 T04190110  RH  016%=      5-min Rain = 0
KCA2 122111Z 17002KT 42/11 A2985 RMK A01 T04180110  RH  016%=      5-min Rain = 0
KCA2 122112Z 18002KT 42/11 A2984 RMK A01 T04170111  RH  016%=      5-min Rain = 0
KCA2 122113Z 25003KT 42/11 A2984 RMK A01 T04170112  RH  016%=      5-min Rain = 0
KCA2 122114Z 27004KT 42/11 A2984 RMK A01 T04210114  RH  016%=      5-min Rain = 0
KCA2 122115Z 29003KT 42/11 A2984 RMK A01 T04210113  RH  016%=      5-min Rain = 0
KCA2 122116Z 31001KT 42/11 A2984 RMK A01 T04190112  RH  016%=      5-min Rain = 0
KCA2 122117Z 34001KT 42/11 A2984 RMK A01 T04170111  RH  016%=      5-min Rain = 0
KCA2 122118Z 03001KT 42/11 A2984 RMK A01 T04180112  RH  016%=      5-min Rain = 0
KCA2 122119Z 03001KT 42/11 A2984 RMK A01 T04180111  RH  016%=      5-min Rain = 0
KCA2 122120Z 00003KT 42/11 A2984 RMK A01 T04160110  RH  016%=      5-min Rain = 0
KCA2 122121Z 04006KT 42/11 A2984 RMK A01 T04170109  RH  016%=      5-min Rain = 0
KCA2 122122Z 05006KT 42/11 A2984 RMK A01 T04180108  RH  016%=      5-min Rain = 0
KCA2 122123Z 06006KT 42/11 A2984 RMK A01 T04180107  RH  016%=      5-min Rain = 0
KCA2 122124Z 04006KT 42/11 A2984 RMK A01 T04190107  RH  016%=      5-min Rain = 0
KCA2 122125Z 01005KT 42/11 A2984 RMK A01 T04190108  RH  016%=      5-min Rain = 0
KCA2 122126Z 35005KT 42/11 A2984 RMK A01 T04180109  RH  016%=      5-min Rain = 0
KCA2 122127Z 03004KT 42/11 A2984 RMK A01 T04210110  RH  016%=      5-min Rain = 0
KCA2 122128Z 03005KT 42/11 A2984 RMK A01 T04230110  RH  016%=      5-min Rain = 0
KCA2 122129Z 36008KT 42/11 A2983 RMK A01 T04230110  RH  016%=      5-min Rain = 0
KCA2 122130Z 02007KT 43/11 A2983 RMK A01 T04250110  RH  016%=      5-min Rain = 0
KCA2 122131Z 01006KT 43/11 A2983 RMK A01 T04250110  RH  016%=      5-min Rain = 0
KCA2 122132Z 02006KT 42/11 A2983 RMK A01 T04220109  RH  016%=      5-min Rain = 0
KCA2 122133Z 01006KT 42/11 A2983 RMK A01 T04220109  RH  016%=      5-min Rain = 0
KCA2 122134Z 33005KT 42/11 A2983 RMK A01 T04230111  RH  016%=      5-min Rain = 0
KCA2 122135Z 32009KT 42/11 A2983 RMK A01 T04240112  RH  016%=      5-min Rain = 0
KCA2 122136Z 31006KT 42/11 A2983 RMK A01 T04230111  RH  016%=      5-min Rain = 0
KCA2 122137Z 33005KT 42/11 A2983 RMK A01 T04200111  RH  016%=      5-min Rain = 0
KCA2 122138Z 31005KT 42/11 A2983 RMK A01 T04240113  RH  016%=      5-min Rain = 0
KCA2 122139Z 29005KT 43/11 A2983 RMK A01 T04270114  RH  016%=      5-min Rain = 0
KCA2 122140Z 30003KT 43/11 A2982 RMK A01 T04270110  RH  015%=      5-min Rain = 0
KCA2 122141Z 25002KT 42/11 A2982 RMK A01 T04230107  RH  015%=      5-min Rain = 0
KCA2 122142Z 30005KT 42/11 A2982 RMK A01 T04230110  RH  016%=      5-min Rain = 0
KCA2 122143Z 29004KT 42/11 A2982 RMK A01 T04230110  RH  016%=      5-min Rain = 0
KCA2 122144Z 27002KT 42/11 A2982 RMK A01 T04200110  RH  016%=      5-min Rain = 0
KCA2 122145Z 10001KT 42/11 A2982 RMK A01 T04200109  RH  016%=      5-min Rain = 0
KCA2 122146Z 08001KT 42/11 A2982 RMK A01 T04200109  RH  016%=      5-min Rain = 0
KCA2 122147Z 23003KT 42/11 A2982 RMK A01 T04200108  RH  016%=      5-min Rain = 0
KCA2 122148Z 27003KT 42/11 A2982 RMK A01 T04220108  RH  016%=      5-min Rain = 0
KCA2 122149Z 28004KT 42/11 A2982 RMK A01 T04240108  RH  016%=      5-min Rain = 0
KCA2 122150Z 28004KT 43/11 A2982 RMK A01 T04250107  RH  015%=      5-min Rain = 0
KCA2 122151Z 26003KT 42/11 A2982 RMK A01 T04230106  RH  015%=      5-min Rain = 0
KCA2 122152Z 23006KT 42/11 A2982 RMK A01 T04220108  RH  016%=      5-min Rain = 0
KCA2 122153Z 31009KT 42/11 A2982 RMK A01 T04210112  RH  016%=      5-min Rain = 0
KCA2 122154Z 29007KT 42/11 A2982 RMK A01 T04200113  RH  016%=      5-min Rain = 0
KCA2 122155Z 25002KT 42/11 A2982 RMK A01 T04190113  RH  016%=      5-min Rain = 0
KCA2 122156Z 35007G13KT 42/11 A2982 RMK A01 T04220114  RH  016%=      5-min Rain = 0
KCA2 122157Z 34006KT 43/11 A2982 RMK A01 T04250113  RH  016%=      5-min Rain = 0
KCA2 122158Z 01005KT 43/11 A2982 RMK A01 T04250113  RH  016%=      5-min Rain = 0
KCA2 122159Z 01003KT 42/11 A2982 RMK A01 T04230113  RH  016%=      5-min Rain = 0
KCA2 122200Z 32006KT 42/12 A2982 RMK A01 T04230115  RH  016%=      5-min Rain = 0
KCA2 122201Z 28009KT 43/12 A2981 RMK A01 T04280117  RH  016%=      5-min Rain = 0
KCA2 122202Z 31008KT 43/12 A2981 RMK A01 T04340120  RH  016%=      5-min Rain = 0
KCA2 122203Z 32011G17KT 44/12 A2981 RMK A01 T04380119  RH  015%=      5-min Rain = 0
KCA2 122204Z 32013KT 44/12 A2981 RMK A01 T04370116  RH  015%=      5-min Rain = 0
KCA2 122205Z 35009KT 43/11 A2982 RMK A01 T04330113  RH  015%=      5-min Rain = 0
KCA2 122206Z 35009KT 43/11 A2981 RMK A01 T04290113  RH  016%=      5-min Rain = 0
KCA2 122207Z 34011KT 43/11 A2981 RMK A01 T04250113  RH  016%=      5-min Rain = 0
KCA2 122208Z 32012KT 42/11 A2981 RMK A01 T04240114  RH  016%=      5-min Rain = 0
KCA2 122209Z 33013KT 43/12 A2981 RMK A01 T04270116  RH  016%=      5-min Rain = 0
KCA2 122210Z 34010KT 43/12 A2982 RMK A01 T04300115  RH  016%=      5-min Rain = 0
KCA2 122211Z 32011KT 43/12 A2982 RMK A01 T04290115  RH  016%=      5-min Rain = 0
KCA2 122212Z 30012KT 43/12 A2981 RMK A01 T04290115  RH  016%=      5-min Rain = 0
KCA2 122213Z 30009KT 43/12 A2981 RMK A01 T04290116  RH  016%=      5-min Rain = 0
KCA2 122214Z 32010KT 44/12 A2981 RMK A01 T04350116  RH  015%=      5-min Rain = 0
KCA2 122215Z 34010KT 44/12 A2981 RMK A01 T04380115  RH  015%=      5-min Rain = 0
KCA2 122216Z 34013KT 44/11 A2981 RMK A01 T04370112  RH  015%=      5-min Rain = 0
KCA2 122217Z 33010KT 43/11 A2982 RMK A01 T04300109  RH  015%=      5-min Rain = 0
KCA2 122218Z 31011G16KT 43/11 A2981 RMK A01 T04290109  RH  015%=      5-min Rain = 0
KCA2 122219Z 31009KT 43/11 A2981 RMK A01 T04280108  RH  015%=      5-min Rain = 0
KCA2 122220Z 30009KT 43/11 A2982 RMK A01 T04330110  RH  015%=      5-min Rain = 0
KCA2 122221Z 34013KT 43/10 A2981 RMK A01 T04340103  RH  014%=      5-min Rain = 0
KCA2 122222Z 34013KT 43/10 A2981 RMK A01 T04330097  RH  014%=      5-min Rain = 0
KCA2 122223Z 34010KT 43/10 A2981 RMK A01 T04310097  RH  014%=      5-min Rain = 0
KCA2 122224Z 33009KT 44/10 A2982 RMK A01 T04350101  RH  014%=      5-min Rain = 0
KCA2 122225Z 32013KT 44/10 A2981 RMK A01 T04380100  RH  014%=      5-min Rain = 0
KCA2 122226Z 31011KT 43/10 A2981 RMK A01 T04310096  RH  014%=      5-min Rain = 0
KCA2 122227Z 30009KT 43/10 A2981 RMK A01 T04300098  RH  014%=      5-min Rain = 0
KCA2 122228Z 31011KT 43/10 A2981 RMK A01 T04310098  RH  014%=      5-min Rain = 0
KCA2 122229Z 31010KT 43/10 A2982 RMK A01 T04310100  RH  014%=      5-min Rain = 0
KCA2 122230Z 31010KT 44/10 A2981 RMK A01 T04350100  RH  014%=      5-min Rain = 0
KCA2 122231Z 32009KT 43/10 A2981 RMK A01 T04320097  RH  014%=      5-min Rain = 0
KCA2 122232Z 35010KT 43/10 A2982 RMK A01 T04300100  RH  014%=      5-min Rain = 0
KCA2 122233Z 32013G19KT 43/10 A2981 RMK A01 T04300101  RH  014%=      5-min Rain = 0
KCA2 122234Z 32014KT 43/10 A2981 RMK A01 T04300100  RH  014%=      5-min Rain = 0
KCA2 122235Z 33014KT 43/10 A2982 RMK A01 T04330103  RH  014%=      5-min Rain = 0
KCA2 122236Z 32014KT 43/10 A2981 RMK A01 T04310102  RH  014%=      5-min Rain = 0
KCA2 122237Z 31010KT 43/10 A2982 RMK A01 T04290102  RH  014%=      5-min Rain = 0
KCA2 122238Z 32015KT 43/10 A2981 RMK A01 T04290102  RH  014%=      5-min Rain = 0
KCA2 122239Z 32013KT 43/10 A2982 RMK A01 T04290101  RH  014%=      5-min Rain = 0
KCA2 122240Z 32011KT 43/10 A2982 RMK A01 T04250099  RH  015%=      5-min Rain = 0
KCA2 122241Z 32010KT 42/10 A2982 RMK A01 T04210099  RH  015%=      5-min Rain = 0
KCA2 122242Z 32011KT 42/10 A2982 RMK A01 T04210101  RH  015%=      5-min Rain = 0
KCA2 122243Z 34011KT 42/10 A2982 RMK A01 T04220103  RH  015%=      5-min Rain = 0
KCA2 122244Z 32009KT 42/10 A2982 RMK A01 T04230103  RH  015%=      5-min Rain = 0
KCA2 122245Z 31008KT 42/10 A2982 RMK A01 T04220104  RH  015%=      5-min Rain = 0
KCA2 122246Z 32010KT 43/11 A2982 RMK A01 T04260105  RH  015%=      5-min Rain = 0
KCA2 122247Z 33006KT 43/11 A2982 RMK A01 T04260105  RH  015%=      5-min Rain = 0
KCA2 122248Z 35010KT 43/10 A2981 RMK A01 T04270102  RH  015%=      5-min Rain = 0
KCA2 122249Z 36009KT 43/10 A2982 RMK A01 T04260100  RH  015%=      5-min Rain = 0
KCA2 122250Z 35012KT 42/10 A2981 RMK A01 T04240102  RH  015%=      5-min Rain = 0
KCA2 122251Z 36008KT 42/11 A2981 RMK A01 T04240106  RH  015%=      5-min Rain = 0
KCA2 122252Z 00012KT 43/11 A2981 RMK A01 T04270108  RH  015%=      5-min Rain = 0
KCA2 122253Z 35011KT 43/11 A2981 RMK A01 T04270106  RH  015%=      5-min Rain = 0
KCA2 122254Z 00010KT 43/11 A2981 RMK A01 T04260106  RH  015%=      5-min Rain = 0
KCA2 122255Z 00007KT 43/11 A2981 RMK A01 T04260105  RH  015%=      5-min Rain = 0
KCA2 122256Z 34011KT 43/11 A2981 RMK A01 T04260106  RH  015%=      5-min Rain = 0
KCA2 122257Z 33014KT 43/10 A2981 RMK A01 T04280103  RH  015%=      5-min Rain = 0
KCA2 122258Z 32009KT 43/11 A2981 RMK A01 T04280105  RH  015%=      5-min Rain = 0
KCA2 122259Z 33011KT 43/11 A2981 RMK A01 T04280105  RH  015%=      5-min Rain = 0
KCA2 122300Z 32009KT 43/10 A2981 RMK A01 T04250103  RH  015%=      5-min Rain = 0
KCA2 122301Z 34009KT 42/10 A2981 RMK A01 T04230100  RH  015%=      5-min Rain = 0
KCA2 122302Z 35007KT 42/10 A2981 RMK A01 T04240096  RH  014%=      5-min Rain = 0
KCA2 122303Z 35007KT 42/10 A2981 RMK A01 T04240096  RH  014%=      5-min Rain = 0
KCA2 122304Z 32009KT 43/10 A2981 RMK A01 T04260098  RH  014%=      5-min Rain = 0
KCA2 122305Z 35007KT 43/10 A2981 RMK A01 T04270099  RH  014%=      5-min Rain = 0
KCA2 122306Z 34011G17KT 43/10 A2981 RMK A01 T04290102  RH  014%=      5-min Rain = 0
KCA2 122307Z 33010KT 43/11 A2981 RMK A01 T04300105  RH  015%=      5-min Rain = 0
KCA2 122308Z 31010KT 43/11 A2981 RMK A01 T04270106  RH  015%=      5-min Rain = 0
KCA2 122309Z 30010KT 43/11 A2981 RMK A01 T04270107  RH  015%=      5-min Rain = 0
KCA2 122310Z 29006KT 43/11 A298 RMK A01 T04260107  RH  015%=      5-min Rain = 0
KCA2 122311Z 30005KT 42/11 A298 RMK A01 T04230107  RH  015%=      5-min Rain = 0
KCA2 122312Z 32008KT 42/11 A298 RMK A01 T04240110  RH  016%=      5-min Rain = 0
KCA2 122313Z 31009KT 43/11 A298 RMK A01 T04260112  RH  016%=      5-min Rain = 0
KCA2 122314Z 30011KT 43/11 A298 RMK A01 T04290111  RH  015%=      5-min Rain = 0
KCA2 122315Z 31013KT 43/11 A298 RMK A01 T04310109  RH  015%=      5-min Rain = 0
KCA2 122316Z 31011KT 43/11 A298 RMK A01 T04280107  RH  015%=      5-min Rain = 0
KCA2 122317Z 33010KT 43/11 A298 RMK A01 T04270105  RH  015%=      5-min Rain = 0
KCA2 122318Z 35009KT 43/11 A298 RMK A01 T04270107  RH  015%=      5-min Rain = 0
KCA2 122319Z 35011KT 43/11 A298 RMK A01 T04260106  RH  015%=      5-min Rain = 0
KCA2 122320Z 34011KT 42/11 A298 RMK A01 T04230105  RH  015%=      5-min Rain = 0
KCA2 122321Z 33013KT 42/11 A298 RMK A01 T04200107  RH  016%=      5-min Rain = 0
KCA2 122322Z 35011KT 42/11 A298 RMK A01 T04210109  RH  016%=      5-min Rain = 0
KCA2 122323Z 33010KT 42/11 A298 RMK A01 T04210109  RH  016%=      5-min Rain = 0
KCA2 122324Z 34009KT 42/11 A298 RMK A01 T04230110  RH  016%=      5-min Rain = 0
KCA2 122325Z 33011G16KT 43/11 A298 RMK A01 T04260111  RH  016%=      5-min Rain = 0
KCA2 122326Z 32011KT 43/11 A298 RMK A01 T04250110  RH  016%=      5-min Rain = 0
KCA2 122327Z 32010KT 43/11 A298 RMK A01 T04250109  RH  016%=      5-min Rain = 0
KCA2 122328Z 34011KT 43/11 A298 RMK A01 T04260110  RH  015%=      5-min Rain = 0
KCA2 122329Z 32010KT 43/11 A298 RMK A01 T04250109  RH  016%=      5-min Rain = 0
KCA2 122330Z 31012KT 43/11 A298 RMK A01 T04250109  RH  016%=      5-min Rain = 0
KCA2 122331Z 30011KT 42/11 A298 RMK A01 T04240109  RH  016%=      5-min Rain = 0
KCA2 122332Z 30008KT 42/11 A298 RMK A01 T04230109  RH  016%=      5-min Rain = 0
KCA2 122333Z 34007KT 42/11 A298 RMK A01 T04200109  RH  016%=      5-min Rain = 0
KCA2 122334Z 35007KT 42/11 A298 RMK A01 T04200109  RH  016%=      5-min Rain = 0
KCA2 122335Z 00010KT 42/11 A298 RMK A01 T04220108  RH  016%=      5-min Rain = 0
KCA2 122336Z 00008KT 42/11 A2981 RMK A01 T04220109  RH  016%=      5-min Rain = 0
KCA2 122337Z 35010KT 43/11 A298 RMK A01 T04250110  RH  016%=      5-min Rain = 0
KCA2 122338Z 35007KT 42/11 A2981 RMK A01 T04240112  RH  016%=      5-min Rain = 0
KCA2 122339Z 35007KT 42/11 A298 RMK A01 T04240112  RH  016%=      5-min Rain = 0
KCA2 122340Z 34012KT 43/11 A298 RMK A01 T04250114  RH  016%=      5-min Rain = 0
KCA2 122341Z 36010KT 42/11 A298 RMK A01 T04220113  RH  016%=      5-min Rain = 0
KCA2 122342Z 35008KT 42/11 A2981 RMK A01 T04210113  RH  016%=      5-min Rain = 0
KCA2 122343Z 33009KT 42/11 A298 RMK A01 T04230114  RH  016%=      5-min Rain = 0
KCA2 122344Z 32007KT 42/11 A298 RMK A01 T04230112  RH  016%=      5-min Rain = 0
KCA2 122345Z 32008KT 42/11 A298 RMK A01 T04220110  RH  016%=      5-min Rain = 0
KCA2 122346Z 33010KT 42/11 A298 RMK A01 T04210109  RH  016%=      5-min Rain = 0
KCA2 122347Z 32008KT 42/11 A298 RMK A01 T04190109  RH  016%=      5-min Rain = 0
KCA2 122348Z 32006KT 42/11 A2981 RMK A01 T04180109  RH  016%=      5-min Rain = 0
KCA2 122349Z 32008KT 42/11 A2981 RMK A01 T04200110  RH  016%=      5-min Rain = 0
KCA2 122350Z 34006KT 42/11 A2981 RMK A01 T04210110  RH  016%=      5-min Rain = 0
KCA2 122351Z 34007KT 42/11 A2981 RMK A01 T04210109  RH  016%=      5-min Rain = 0
KCA2 122352Z 35009KT 42/11 A2981 RMK A01 T04210110  RH  016%=      5-min Rain = 0
KCA2 122353Z 01006KT 42/11 A2981 RMK A01 T04190111  RH  016%=      5-min Rain = 0
KCA2 122354Z 03006KT 42/11 A2981 RMK A01 T04190111  RH  016%=      5-min Rain = 0
KCA2 122355Z 07006KT 42/11 A2981 RMK A01 T04200112  RH  016%=      5-min Rain = 0
KCA2 122356Z 09009KT 42/12 A2981 RMK A01 T04170123  RH  018%=      5-min Rain = 0
KCA2 122357Z 08008KT 41/13 A2981 RMK A01 T04110125  RH  018%=      5-min Rain = 0
KCA2 122358Z 09006KT 41/13 A2981 RMK A01 T04090125  RH  019%=      5-min Rain = 0
KCA2 122359Z 12005KT 41/13 A2981 RMK A01 T04070125  RH  019%=      5-min Rain = 0
KCA2 130000Z 13005KT 41/13 A2981 RMK A01 T04070126  RH  019%=      5-min Rain = 0
KCA2 130001Z 13007KT 41/13 A2981 RMK A01 T04070127  RH  019%=      5-min Rain = 0
KCA2 130002Z 13008KT 41/13 A298 RMK A01 T04070128  RH  019%=      5-min Rain = 0
KCA2 130003Z 13008KT 41/13 A298 RMK A01 T04080129  RH  019%=      5-min Rain = 0
KCA2 130004Z 10009KT 41/13 A298 RMK A01 T04080128  RH  019%=      5-min Rain = 0
KCA2 130005Z 08009KT 41/12 A2981 RMK A01 T04100123  RH  018%=      5-min Rain = 0
KCA2 130006Z 08009KT 41/12 A2981 RMK A01 T04100123  RH  018%=      5-min Rain = 0
KCA2 130007Z 08014KT 41/13 A298 RMK A01 T04110128  RH  019%=      5-min Rain = 0
KCA2 130008Z 06010KT 41/13 A2981 RMK A01 T04100129  RH  019%=      5-min Rain = 0
KCA2 130009Z 05010KT 41/13 A2981 RMK A01 T04100129  RH  019%=      5-min Rain = 0
KCA2 130010Z 05010KT 41/13 A2981 RMK A01 T04100128  RH  019%=      5-min Rain = 0
KCA2 130011Z 06010KT 41/13 A2981 RMK A01 T04090128  RH  019%=      5-min Rain = 0
KCA2 130012Z 05007KT 41/13 A2981 RMK A01 T04080130  RH  019%=      5-min Rain = 0
KCA2 130013Z 05006KT 41/13 A2981 RMK A01 T04090130  RH  019%=      5-min Rain = 0
KCA2 130014Z 07009G14KT 41/13 A2981 RMK A01 T04100130  RH  019%=      5-min Rain = 0
KCA2 130015Z 07010KT 41/13 A2981 RMK A01 T04100130  RH  019%=      5-min Rain = 0
KCA2 130016Z 07014KT 41/13 A2981 RMK A01 T04100130  RH  019%=      5-min Rain = 0
KCA2 130017Z 08014G19KT 41/13 A2981 RMK A01 T04080131  RH  020%=      5-min Rain = 0
KCA2 130018Z 08015KT 41/13 A2981 RMK A01 T04060132  RH  020%=      5-min Rain = 0
KCA2 130019Z 08017KT 41/13 A2981 RMK A01 T04050131  RH  020%=      5-min Rain = 0
KCA2 130020Z 07013KT 40/13 A2981 RMK A01 T04040129  RH  020%=      5-min Rain = 0
KCA2 130021Z 06009KT 40/13 A2981 RMK A01 T04040130  RH  020%=      5-min Rain = 0
KCA2 130022Z 09011KT 40/13 A2981 RMK A01 T04040130  RH  020%=      5-min Rain = 0
KCA2 130023Z 07009KT 40/13 A2981 RMK A01 T04040131  RH  020%=      5-min Rain = 0
KCA2 130024Z 09012KT 40/13 A2981 RMK A01 T04040132  RH  020%=      5-min Rain = 0
KCA2 130025Z 10010KT 40/13 A2981 RMK A01 T04040132  RH  020%=      5-min Rain = 0
KCA2 130026Z 09010KT 40/13 A2981 RMK A01 T04020131  RH  020%=      5-min Rain = 0
KCA2 130027Z 09013G18KT 40/13 A298 RMK A01 T04020131  RH  020%=      5-min Rain = 0
KCA2 130028Z 08012G17KT 40/13 A298 RMK A01 T04000131  RH  020%=      5-min Rain = 0
KCA2 130029Z 07012KT 40/13 A2981 RMK A01 T04000131  RH  020%=      5-min Rain = 0
KCA2 130030Z 08010KT 40/13 A2981 RMK A01 T03990130  RH  020%=      5-min Rain = 0
KCA2 130031Z 07014G20KT 40/13 A2981 RMK A01 T03990130  RH  020%=      5-min Rain = 0
KCA2 130032Z 08016KT 40/13 A2981 RMK A01 T03990130  RH  020%=      5-min Rain = 0
KCA2 130033Z 07015KT 40/13 A2981 RMK A01 T03980129  RH  020%=      5-min Rain = 0
KCA2 130034Z 07014G19KT 40/13 A2981 RMK A01 T03980128  RH  020%=      5-min Rain = 0
KCA2 130035Z 07011KT 40/13 A2981 RMK A01 T03980128  RH  020%=      5-min Rain = 0
KCA2 130036Z 07013KT 40/13 A2981 RMK A01 T03990127  RH  020%=      5-min Rain = 0
KCA2 130037Z 07012G17KT 40/13 A2981 RMK A01 T03990126  RH  020%=      5-min Rain = 0
KCA2 130038Z 07014KT 40/13 A2981 RMK A01 T03990126  RH  020%=      5-min Rain = 0
KCA2 130039Z 06014KT 40/13 A2981 RMK A01 T03980125  RH  020%=      5-min Rain = 0
KCA2 130040Z 07012KT 40/13 A2981 RMK A01 T03960126  RH  020%=      5-min Rain = 0
KCA2 130041Z 08013KT 40/13 A2981 RMK A01 T03950125  RH  020%=      5-min Rain = 0
KCA2 130042Z 07011KT 39/13 A2981 RMK A01 T03940125  RH  020%=      5-min Rain = 0
KCA2 130043Z 08014G19KT 39/12 A2981 RMK A01 T03940124  RH  020%=      5-min Rain = 0
KCA2 130044Z 09013KT 39/12 A2981 RMK A01 T03940123  RH  020%=      5-min Rain = 0
KCA2 130045Z 08012KT 39/12 A2981 RMK A01 T03940122  RH  020%=      5-min Rain = 0
KCA2 130046Z 08011KT 39/12 A2981 RMK A01 T03930121  RH  020%=      5-min Rain = 0
KCA2 130047Z 08012KT 39/12 A2981 RMK A01 T03940121  RH  020%=      5-min Rain = 0
KCA2 130048Z 07013KT 39/12 A2981 RMK A01 T03940121  RH  020%=      5-min Rain = 0
KCA2 130049Z 08014KT 39/12 A2981 RMK A01 T03930120  RH  020%=      5-min Rain = 0
KCA2 130050Z 08013KT 39/12 A2981 RMK A01 T03940120  RH  020%=      5-min Rain = 0
KCA2 130051Z 08015KT 39/12 A2981 RMK A01 T03930118  RH  019%=      5-min Rain = 0
KCA2 130052Z 09011KT 39/12 A2981 RMK A01 T03940118  RH  019%=      5-min Rain = 0
KCA2 130053Z 08012KT 39/12 A2981 RMK A01 T03940117  RH  019%=      5-min Rain = 0
KCA2 130054Z 07012KT 39/12 A2981 RMK A01 T03940117  RH  019%=      5-min Rain = 0
KCA2 130055Z 07010KT 39/12 A2981 RMK A01 T03930117  RH  019%=      5-min Rain = 0
KCA2 130056Z 07012KT 39/12 A2981 RMK A01 T03930117  RH  019%=      5-min Rain = 0
KCA2 130057Z 08011KT 39/12 A2981 RMK A01 T03930116  RH  019%=      5-min Rain = 0
KCA2 130058Z 09010KT 39/12 A2981 RMK A01 T03930116  RH  019%=      5-min Rain = 0
KCA2 130059Z 08010KT 39/12 A2981 RMK A01 T03930115  RH  019%=      5-min Rain = 0
KCA2 130100Z 09008KT 39/11 A2981 RMK A01 T03930114  RH  019%=      5-min Rain = 0
KCA2 130101Z 09008KT 39/11 A2981 RMK A01 T03930114  RH  019%=      5-min Rain = 0
KCA2 130102Z 08009G14KT 39/11 A2981 RMK A01 T03940114  RH  019%=      5-min Rain = 0
KCA2 130103Z 09011KT 39/11 A2981 RMK A01 T03940114  RH  019%=      5-min Rain = 0
KCA2 130104Z 09009KT 39/11 A2981 RMK A01 T03940114  RH  019%=      5-min Rain = 0
KCA2 130105Z 08009KT 39/11 A2981 RMK A01 T03940114  RH  019%=      5-min Rain = 0
KCA2 130106Z 07008KT 39/11 A2981 RMK A01 T03940114  RH  019%=      5-min Rain = 0
KCA2 130107Z 08008KT 39/11 A2981 RMK A01 T03940113  RH  019%=      5-min Rain = 0
KCA2 130108Z 08010KT 39/11 A2981 RMK A01 T03940113  RH  019%=      5-min Rain = 0
KCA2 130109Z 08011KT 39/11 A2981 RMK A01 T03940113  RH  019%=      5-min Rain = 0
KCA2 130110Z 08008KT 39/11 A2981 RMK A01 T03930111  RH  019%=      5-min Rain = 0
KCA2 130111Z 08009KT 39/11 A2981 RMK A01 T03930111  RH  019%=      5-min Rain = 0
KCA2 130112Z 08007KT 39/11 A2981 RMK A01 T03930112  RH  019%=      5-min Rain = 0
KCA2 130113Z 10008KT 39/11 A2981 RMK A01 T03930111  RH  019%=      5-min Rain = 0
KCA2 130114Z 10007KT 39/11 A2981 RMK A01 T03940112  RH  019%=      5-min Rain = 0
KCA2 130115Z 08006KT 39/11 A2981 RMK A01 T03940112  RH  019%=      5-min Rain = 0
KCA2 130116Z 09008KT 39/11 A2981 RMK A01 T03940112  RH  019%=      5-min Rain = 0
KCA2 130117Z 09010KT 39/11 A2981 RMK A01 T03930110  RH  018%=      5-min Rain = 0
KCA2 130118Z 09009KT 39/11 A2981 RMK A01 T03930108  RH  018%=      5-min Rain = 0
KCA2 130119Z 08007KT 39/11 A2981 RMK A01 T03920108  RH  018%=      5-min Rain = 0
KCA2 130120Z 07007KT 39/11 A2981 RMK A01 T03930108  RH  018%=      5-min Rain = 0
KCA2 130121Z 07006KT 39/11 A2981 RMK A01 T03930108  RH  018%=      5-min Rain = 0
KCA2 130122Z 08005KT 39/11 A2981 RMK A01 T03910107  RH  018%=      5-min Rain = 0
KCA2 130123Z 09007KT 39/11 A2981 RMK A01 T03910108  RH  018%=      5-min Rain = 0
KCA2 130124Z 08006KT 39/11 A2981 RMK A01 T03910108  RH  018%=      5-min Rain = 0
KCA2 130125Z 08006KT 39/11 A2981 RMK A01 T03910108  RH  018%=      5-min Rain = 0
KCA2 130126Z 07004KT 39/11 A2981 RMK A01 T03910107  RH  018%=      5-min Rain = 0
KCA2 130127Z 08005KT 39/11 A2981 RMK A01 T03910107  RH  018%=      5-min Rain = 0
KCA2 130128Z 07005KT 39/11 A2981 RMK A01 T03910107  RH  018%=      5-min Rain = 0
KCA2 130129Z 08006KT 39/11 A2981 RMK A01 T03910107  RH  018%=      5-min Rain = 0
KCA2 130130Z 09006KT 39/11 A2981 RMK A01 T03910106  RH  018%=      5-min Rain = 0
KCA2 130131Z 08005KT 39/11 A2981 RMK A01 T03900106  RH  018%=      5-min Rain = 0
KCA2 130132Z 09004KT 39/11 A2981 RMK A01 T03900105  RH  018%=      5-min Rain = 0
KCA2 130133Z 10004KT 39/11 A2981 RMK A01 T03900105  RH  018%=      5-min Rain = 0
KCA2 130134Z 10004KT 39/11 A2981 RMK A01 T03900105  RH  018%=      5-min Rain = 0
KCA2 130135Z 08004KT 39/10 A2981 RMK A01 T03890104  RH  018%=      5-min Rain = 0
KCA2 130136Z 09006KT 39/10 A2981 RMK A01 T03890103  RH  018%=      5-min Rain = 0
KCA2 130137Z 08007KT 39/10 A2981 RMK A01 T03890103  RH  018%=      5-min Rain = 0
KCA2 130138Z 09008KT 39/10 A2981 RMK A01 T03890104  RH  018%=      5-min Rain = 0
KCA2 130139Z 09009KT 39/11 A2981 RMK A01 T03890105  RH  018%=      5-min Rain = 0
KCA2 130140Z 09008KT 39/11 A2982 RMK A01 T03890106  RH  018%=      5-min Rain = 0
KCA2 130141Z 09008KT 39/11 A2982 RMK A01 T03890107  RH  018%=      5-min Rain = 0
KCA2 130142Z 08007KT 39/11 A2982 RMK A01 T03890107  RH  018%=      5-min Rain = 0
KCA2 130143Z 09006KT 39/11 A2982 RMK A01 T03890107  RH  018%=      5-min Rain = 0
KCA2 130144Z 10007KT 39/11 A2982 RMK A01 T03890107  RH  019%=      5-min Rain = 0
KCA2 130145Z 10007KT 39/11 A2982 RMK A01 T03890109  RH  019%=      5-min Rain = 0
KCA2 130146Z 10005KT 39/11 A2982 RMK A01 T03880109  RH  019%=      5-min Rain = 0
KCA2 130147Z 10005KT 39/11 A2982 RMK A01 T03880109  RH  019%=      5-min Rain = 0
KCA2 130148Z 10007KT 39/11 A2982 RMK A01 T03880110  RH  019%=      5-min Rain = 0
KCA2 130149Z 10005KT 39/11 A2982 RMK A01 T03880110  RH  019%=      5-min Rain = 0
KCA2 130150Z 09004KT 39/11 A2982 RMK A01 T03870111  RH  019%=      5-min Rain = 0
KCA2 130151Z 09004KT 39/11 A2982 RMK A01 T03870110  RH  019%=      5-min Rain = 0
KCA2 130152Z 08004KT 39/11 A2982 RMK A01 T03860111  RH  019%=      5-min Rain = 0
KCA2 130153Z 08004KT 39/11 A2982 RMK A01 T03860111  RH  019%=      5-min Rain = 0
KCA2 130154Z 08005KT 39/11 A2982 RMK A01 T03850111  RH  019%=      5-min Rain = 0
KCA2 130155Z 08005KT 39/11 A2982 RMK A01 T03850111  RH  019%=      5-min Rain = 0
KCA2 130156Z 07005KT 39/11 A2982 RMK A01 T03850111  RH  019%=      5-min Rain = 0
KCA2 130157Z 07004KT 39/11 A2982 RMK A01 T03850112  RH  019%=      5-min Rain = 0
KCA2 130158Z 05003KT 39/11 A2982 RMK A01 T03850111  RH  019%=      5-min Rain = 0
KCA2 130159Z 06004KT 39/11 A2982 RMK A01 T03850111  RH  019%=      5-min Rain = 0
KCA2 130200Z 06004KT 39/11 A2982 RMK A01 T03850112  RH  020%=      5-min Rain = 0
KCA2 130201Z 06005KT 38/11 A2982 RMK A01 T03840112  RH  020%=      5-min Rain = 0
KCA2 130202Z 06005KT 38/11 A2982 RMK A01 T03830112  RH  020%=      5-min Rain = 0
KCA2 130203Z 06004KT 38/11 A2982 RMK A01 T03830113  RH  020%=      5-min Rain = 0
KCA2 130204Z 07005KT 38/11 A2982 RMK A01 T03830113  RH  020%=      5-min Rain = 0
KCA2 130205Z 08004KT 38/11 A2982 RMK A01 T03830112  RH  020%=      5-min Rain = 0
KCA2 130206Z 08002KT 38/11 A2982 RMK A01 T03830112  RH  020%=      5-min Rain = 0
KCA2 130207Z 11002KT 38/11 A2982 RMK A01 T03820112  RH  020%=      5-min Rain = 0
KCA2 130208Z 16002KT 38/11 A2982 RMK A01 T03810113  RH  020%=      5-min Rain = 0
KCA2 130209Z 14001KT 38/11 A2982 RMK A01 T03810113  RH  020%=      5-min Rain = 0
KCA2 130210Z 19001KT 38/11 A2982 RMK A01 T03790112  RH  020%=      5-min Rain = 0
KCA2 130211Z 22003KT 38/11 A2982 RMK A01 T03780113  RH  020%=      5-min Rain = 0
KCA2 130212Z 22003KT 38/11 A2982 RMK A01 T03770113  RH  021%=      5-min Rain = 0
KCA2 130213Z 21004KT 38/11 A2982 RMK A01 T03750113  RH  021%=      5-min Rain = 0
KCA2 130214Z 21005KT 37/11 A2982 RMK A01 T03740114  RH  021%=      5-min Rain = 0
KCA2 130215Z 20004KT 37/11 A2982 RMK A01 T03730113  RH  021%=      5-min Rain = 0
KCA2 130216Z 20004KT 37/11 A2982 RMK A01 T03720112  RH  021%=      5-min Rain = 0
KCA2 130217Z 19004KT 37/11 A2982 RMK A01 T03720112  RH  021%=      5-min Rain = 0
KCA2 130218Z 19004KT 37/11 A2982 RMK A01 T03720112  RH  021%=      5-min Rain = 0
KCA2 130219Z 18004KT 37/11 A2982 RMK A01 T03720112  RH  021%=      5-min Rain = 0
KCA2 130220Z 18005KT 37/11 A2982 RMK A01 T03730112  RH  021%=      5-min Rain = 0
KCA2 130221Z 18004KT 37/11 A2982 RMK A01 T03730112  RH  021%=      5-min Rain = 0
KCA2 130222Z 17004KT 37/11 A2982 RMK A01 T03730113  RH  021%=      5-min Rain = 0
KCA2 130223Z 17004KT 37/11 A2982 RMK A01 T03720113  RH  021%=      5-min Rain = 0
KCA2 130224Z 17004KT 37/11 A2982 RMK A01 T03720112  RH  021%=      5-min Rain = 0
KCA2 130225Z 17004KT 37/11 A2982 RMK A01 T03720113  RH  021%=      5-min Rain = 0
KCA2 130226Z 18004KT 37/11 A2982 RMK A01 T03720113  RH  021%=      5-min Rain = 0
KCA2 130227Z 18003KT 37/11 A2982 RMK A01 T03720112  RH  021%=      5-min Rain = 0
KCA2 130228Z 18003KT 37/11 A2982 RMK A01 T03720112  RH  021%=      5-min Rain = 0
KCA2 130229Z 18003KT 37/11 A2982 RMK A01 T03720112  RH  021%=      5-min Rain = 0
KCA2 130230Z 18003KT 37/11 A2982 RMK A01 T03720112  RH  021%=      5-min Rain = 0
KCA2 130231Z 18003KT 37/11 A2982 RMK A01 T03730113  RH  021%=      5-min Rain = 0
KCA2 130232Z 18002KT 37/11 A2982 RMK A01 T03730113  RH  021%=      5-min Rain = 0
KCA2 130233Z 18002KT 37/11 A2982 RMK A01 T03730112  RH  021%=      5-min Rain = 0
KCA2 130234Z 17002KT 37/11 A2982 RMK A01 T03740113  RH  021%=      5-min Rain = 0
KCA2 130235Z 16002KT 37/11 A2982 RMK A01 T03730113  RH  021%=      5-min Rain = 0
KCA2 130236Z 16002KT 37/11 A2982 RMK A01 T03730113  RH  021%=      5-min Rain = 0
KCA2 130237Z 16001KT 37/11 A2982 RMK A01 T03730113  RH  021%=      5-min Rain = 0
KCA2 130238Z 15002KT 37/11 A2982 RMK A01 T03730113  RH  021%=      5-min Rain = 0
KCA2 130239Z 15002KT 37/11 A2982 RMK A01 T03720113  RH  021%=      5-min Rain = 0
KCA2 130240Z 13002KT 37/11 A2982 RMK A01 T03720113  RH  021%=      5-min Rain = 0
KCA2 130241Z 12002KT 37/11 A2982 RMK A01 T03710113  RH  021%=      5-min Rain = 0
KCA2 130242Z 11002KT 37/11 A2982 RMK A01 T03710113  RH  021%=      5-min Rain = 0
KCA2 130243Z 11002KT 37/11 A2982 RMK A01 T03710113  RH  021%=      5-min Rain = 0
KCA2 130244Z 11002KT 37/11 A2982 RMK A01 T03700113  RH  021%=      5-min Rain = 0
KCA2 130245Z 10002KT 37/11 A2982 RMK A01 T03700113  RH  021%=      5-min Rain = 0
KCA2 130246Z 10002KT 37/11 A2982 RMK A01 T03690113  RH  021%=      5-min Rain = 0
KCA2 130247Z 11003KT 37/11 A2982 RMK A01 T03680113  RH  021%=      5-min Rain = 0
KCA2 130248Z 11003KT 37/11 A2982 RMK A01 T03670112  RH  021%=      5-min Rain = 0
KCA2 130249Z 12003KT 37/11 A2982 RMK A01 T03670112  RH  022%=      5-min Rain = 0
KCA2 130250Z 12003KT 37/11 A2982 RMK A01 T03670113  RH  022%=      5-min Rain = 0
KCA2 130251Z 12003KT 37/11 A2983 RMK A01 T03670113  RH  022%=      5-min Rain = 0
KCA2 130252Z 13003KT 37/11 A2983 RMK A01 T03670113  RH  022%=      5-min Rain = 0
KCA2 130253Z 13003KT 37/11 A2983 RMK A01 T03670113  RH  022%=      5-min Rain = 0
KCA2 130254Z 13003KT 37/11 A2983 RMK A01 T03670113  RH  022%=      5-min Rain = 0
KCA2 130255Z 14003KT 37/11 A2983 RMK A01 T03660113  RH  022%=      5-min Rain = 0
KCA2 130256Z 14003KT 37/11 A2983 RMK A01 T03660113  RH  022%=      5-min Rain = 0
KCA2 130257Z 14003KT 37/11 A2983 RMK A01 T03660113  RH  022%=      5-min Rain = 0
KCA2 130258Z 14003KT 37/11 A2983 RMK A01 T03660113  RH  022%=      5-min Rain = 0
KCA2 130259Z 14003KT 37/11 A2983 RMK A01 T03660113  RH  022%=      5-min Rain = 0
KCA2 130300Z 14003KT 37/11 A2983 RMK A01 T03670113  RH  022%=      5-min Rain = 0
KCA2 130301Z 13003KT 37/11 A2983 RMK A01 T03660112  RH  022%=      5-min Rain = 0
KCA2 130302Z 13003KT 37/11 A2983 RMK A01 T03670112  RH  022%=      5-min Rain = 0
KCA2 130303Z 13003KT 37/11 A2983 RMK A01 T03670112  RH  022%=      5-min Rain = 0
KCA2 130304Z 12003KT 37/11 A2983 RMK A01 T03660112  RH  022%=      5-min Rain = 0
KCA2 130305Z 12003KT 37/11 A2983 RMK A01 T03670112  RH  022%=      5-min Rain = 0
KCA2 130306Z 10003KT 37/11 A2983 RMK A01 T03670112  RH  022%=      5-min Rain = 0
KCA2 130307Z 09003KT 37/11 A2983 RMK A01 T03670112  RH  022%=      5-min Rain = 0
KCA2 130308Z 09003KT 37/11 A2983 RMK A01 T03660112  RH  022%=      5-min Rain = 0
KCA2 130309Z 09003KT 37/11 A2983 RMK A01 T03660112  RH  022%=      5-min Rain = 0
KCA2 130310Z 09003KT 37/11 A2983 RMK A01 T03660113  RH  022%=      5-min Rain = 0
KCA2 130311Z 10003KT 37/11 A2983 RMK A01 T03660113  RH  022%=      5-min Rain = 0
KCA2 130312Z 10003KT 37/11 A2983 RMK A01 T03660112  RH  022%=      5-min Rain = 0
KCA2 130313Z 10003KT 37/11 A2983 RMK A01 T03660113  RH  022%=      5-min Rain = 0
KCA2 130314Z 11003KT 37/11 A2983 RMK A01 T03660113  RH  022%=      5-min Rain = 0
KCA2 130315Z 13004KT 37/11 A2984 RMK A01 T03660113  RH  022%=      5-min Rain = 0
KCA2 130316Z 13005KT 37/11 A2984 RMK A01 T03660113  RH  022%=      5-min Rain = 0
KCA2 130317Z 14006KT 36/11 A2984 RMK A01 T03640113  RH  022%=      5-min Rain = 0
KCA2 130318Z 14006KT 36/11 A2984 RMK A01 T03620112  RH  022%=      5-min Rain = 0
KCA2 130319Z 14007KT 36/11 A2984 RMK A01 T03600114  RH  023%=      5-min Rain = 0
KCA2 130320Z 14008KT 36/12 A2984 RMK A01 T03590116  RH  023%=      5-min Rain = 0
KCA2 130321Z 14007KT 36/12 A2984 RMK A01 T03580116  RH  023%=      5-min Rain = 0
KCA2 130322Z 14008KT 36/12 A2984 RMK A01 T03580116  RH  023%=      5-min Rain = 0
KCA2 130323Z 14007KT 36/12 A2984 RMK A01 T03570117  RH  023%=      5-min Rain = 0
KCA2 130324Z 14008KT 36/12 A2984 RMK A01 T03570118  RH  024%=      5-min Rain = 0
KCA2 130325Z 14008KT 36/12 A2984 RMK A01 T03580120  RH  024%=      5-min Rain = 0
KCA2 130326Z 14008KT 36/12 A2984 RMK A01 T03590121  RH  024%=      5-min Rain = 0
KCA2 130327Z 14007KT 36/12 A2985 RMK A01 T03610123  RH  024%=      5-min Rain = 0
KCA2 130328Z 14007KT 36/12 A2985 RMK A01 T03610123  RH  024%=      5-min Rain = 0
KCA2 130329Z 14008KT 36/12 A2985 RMK A01 T03620124  RH  024%=      5-min Rain = 0
KCA2 130330Z 14007KT 36/13 A2985 RMK A01 T03620125  RH  024%=      5-min Rain = 0
KCA2 130331Z 14008KT 36/13 A2985 RMK A01 T03630126  RH  024%=      5-min Rain = 0
KCA2 130332Z 13008KT 36/13 A2985 RMK A01 T03630127  RH  024%=      5-min Rain = 0
KCA2 130333Z 13009KT 36/13 A2985 RMK A01 T03630127  RH  024%=      5-min Rain = 0
KCA2 130334Z 14008KT 36/13 A2985 RMK A01 T03630129  RH  025%=      5-min Rain = 0
KCA2 130335Z 13007KT 36/13 A2985 RMK A01 T03630129  RH  025%=      5-min Rain = 0
KCA2 130336Z 13008KT 36/13 A2985 RMK A01 T03630130  RH  025%=      5-min Rain = 0
KCA2 130337Z 13009KT 36/13 A2985 RMK A01 T03630131  RH  025%=      5-min Rain = 0
KCA2 130338Z 13008KT 36/13 A2985 RMK A01 T03640132  RH  025%=      5-min Rain = 0
KCA2 130339Z 14008KT 36/13 A2985 RMK A01 T03640132  RH  025%=      5-min Rain = 0
KCA2 130340Z 13008KT 36/13 A2985 RMK A01 T03640133  RH  025%=      5-min Rain = 0
KCA2 130341Z 14009KT 36/13 A2985 RMK A01 T03640134  RH  025%=      5-min Rain = 0
KCA2 130342Z 13008KT 36/14 A2985 RMK A01 T03640135  RH  025%=      5-min Rain = 0
KCA2 130343Z 14007KT 37/14 A2985 RMK A01 T03650135  RH  025%=      5-min Rain = 0
KCA2 130344Z 13007KT 37/14 A2985 RMK A01 T03650136  RH  025%=      5-min Rain = 0
KCA2 130345Z 13008KT 37/14 A2985 RMK A01 T03650136  RH  025%=      5-min Rain = 0
KCA2 130346Z 13009KT 37/14 A2985 RMK A01 T03650137  RH  026%=      5-min Rain = 0
KCA2 130347Z 14011KT 37/14 A2985 RMK A01 T03650139  RH  026%=      5-min Rain = 0
KCA2 130348Z 14009KT 37/14 A2985 RMK A01 T03650139  RH  026%=      5-min Rain = 0
KCA2 130349Z 14010KT 37/14 A2985 RMK A01 T03650139  RH  026%=      5-min Rain = 0
KCA2 130350Z 14009KT 37/14 A2985 RMK A01 T03650140  RH  026%=      5-min Rain = 0
KCA2 130351Z 14008KT 37/14 A2986 RMK A01 T03650139  RH  026%=      5-min Rain = 0
KCA2 130352Z 14009KT 36/14 A2986 RMK A01 T03640140  RH  026%=      5-min Rain = 0
KCA2 130353Z 14008KT 36/14 A2986 RMK A01 T03630140  RH  026%=      5-min Rain = 0
KCA2 130354Z 14008KT 36/14 A2986 RMK A01 T03630141  RH  027%=      5-min Rain = 0
KCA2 130355Z 14008KT 36/14 A2986 RMK A01 T03630141  RH  027%=      5-min Rain = 0
KCA2 130356Z 15008KT 36/14 A2986 RMK A01 T03620141  RH  027%=      5-min Rain = 0
KCA2 130357Z 14007KT 36/14 A2986 RMK A01 T03620141  RH  027%=      5-min Rain = 0
KCA2 130358Z 14007KT 36/14 A2986 RMK A01 T03620142  RH  027%=      5-min Rain = 0
KCA2 130359Z 14006KT 36/14 A2986 RMK A01 T03610142  RH  027%=      5-min Rain = 0
KCA2 130400Z 14006KT 36/14 A2986 RMK A01 T03610142  RH  027%=      5-min Rain = 0
KCA2 130401Z 13006KT 36/14 A2986 RMK A01 T03600142  RH  027%=      5-min Rain = 0
KCA2 130402Z 13005KT 36/14 A2986 RMK A01 T03590142  RH  027%=      5-min Rain = 0
KCA2 130403Z 13005KT 36/14 A2987 RMK A01 T03590142  RH  027%=      5-min Rain = 0
KCA2 130404Z 13005KT 36/14 A2987 RMK A01 T03580142  RH  027%=      5-min Rain = 0
KCA2 130405Z 13005KT 36/14 A2987 RMK A01 T03580143  RH  028%=      5-min Rain = 0
KCA2 130406Z 14007KT 36/14 A2987 RMK A01 T03580143  RH  028%=      5-min Rain = 0
KCA2 130407Z 14006KT 36/14 A2987 RMK A01 T03570143  RH  028%=      5-min Rain = 0
KCA2 130408Z 14006KT 36/14 A2987 RMK A01 T03570143  RH  028%=      5-min Rain = 0
KCA2 130409Z 14006KT 36/14 A2987 RMK A01 T03570143  RH  028%=      5-min Rain = 0
KCA2 130410Z 14006KT 36/14 A2987 RMK A01 T03560143  RH  028%=      5-min Rain = 0
KCA2 130411Z 14007KT 36/14 A2987 RMK A01 T03560144  RH  028%=      5-min Rain = 0
KCA2 130412Z 13006KT 36/14 A2987 RMK A01 T03560144  RH  028%=      5-min Rain = 0
KCA2 130413Z 14006KT 36/14 A2987 RMK A01 T03560144  RH  028%=      5-min Rain = 0
KCA2 130414Z 14006KT 36/14 A2987 RMK A01 T03560144  RH  028%=      5-min Rain = 0
KCA2 130415Z 14006KT 36/14 A2987 RMK A01 T03570144  RH  028%=      5-min Rain = 0
KCA2 130416Z 14006KT 36/14 A2987 RMK A01 T03560144  RH  028%=      5-min Rain = 0
KCA2 130417Z 13006KT 36/14 A2987 RMK A01 T03570144  RH  028%=      5-min Rain = 0
KCA2 130418Z 13005KT 36/14 A2987 RMK A01 T03560144  RH  028%=      5-min Rain = 0
KCA2 130419Z 12005KT 36/14 A2987 RMK A01 T03560144  RH  028%=      5-min Rain = 0
KCA2 130420Z 11005KT 36/14 A2987 RMK A01 T03550144  RH  028%=      5-min Rain = 0
KCA2 130421Z 11006KT 36/15 A2987 RMK A01 T03550145  RH  028%=      5-min Rain = 0
KCA2 130422Z 12008KT 36/15 A2987 RMK A01 T03560145  RH  028%=      5-min Rain = 0
KCA2 130423Z 13008KT 36/15 A2987 RMK A01 T03580145  RH  028%=      5-min Rain = 0
KCA2 130424Z 12008KT 36/15 A2987 RMK A01 T03600146  RH  028%=      5-min Rain = 0
KCA2 130425Z 12007KT 36/15 A2987 RMK A01 T03610146  RH  028%=      5-min Rain = 0
KCA2 130426Z 12008KT 36/15 A2987 RMK A01 T03610146  RH  028%=      5-min Rain = 0
KCA2 130427Z 12008KT 36/15 A2987 RMK A01 T03620146  RH  028%=      5-min Rain = 0
KCA2 130428Z 12008KT 36/15 A2987 RMK A01 T03620147  RH  028%=      5-min Rain = 0
KCA2 130429Z 12010KT 36/15 A2987 RMK A01 T03630147  RH  028%=      5-min Rain = 0
KCA2 130430Z 12010KT 36/15 A2987 RMK A01 T03630148  RH  028%=      5-min Rain = 0
KCA2 130431Z 12008KT 36/15 A2987 RMK A01 T03640148  RH  028%=      5-min Rain = 0
KCA2 130432Z 12009KT 36/15 A2987 RMK A01 T03640148  RH  028%=      5-min Rain = 0
KCA2 130433Z 12008KT 36/15 A2987 RMK A01 T03630147  RH  028%=      5-min Rain = 0
KCA2 130434Z 11009KT 36/15 A2987 RMK A01 T03630147  RH  028%=      5-min Rain = 0
KCA2 130435Z 12008KT 36/15 A2987 RMK A01 T03630147  RH  028%=      5-min Rain = 0
KCA2 130436Z 12008KT 36/15 A2987 RMK A01 T03620148  RH  028%=      5-min Rain = 0
KCA2 130437Z 12009KT 36/15 A2987 RMK A01 T03620148  RH  028%=      5-min Rain = 0
KCA2 130438Z 13010KT 36/15 A2987 RMK A01 T03620148  RH  028%=      5-min Rain = 0
KCA2 130439Z 12010KT 36/15 A2987 RMK A01 T03620147  RH  028%=      5-min Rain = 0
KCA2 130440Z 12010KT 36/15 A2987 RMK A01 T03620148  RH  028%=      5-min Rain = 0
KCA2 130441Z 11008KT 36/15 A2987 RMK A01 T03620147  RH  028%=      5-min Rain = 0
KCA2 130442Z 11008KT 36/15 A2987 RMK A01 T03620147  RH  028%=      5-min Rain = 0
KCA2 130443Z 12009KT 36/15 A2988 RMK A01 T03620147  RH  028%=      5-min Rain = 0
KCA2 130444Z 12009KT 36/15 A2988 RMK A01 T03620147  RH  028%=      5-min Rain = 0
KCA2 130445Z 12009KT 36/15 A2988 RMK A01 T03620147  RH  028%=      5-min Rain = 0
KCA2 130446Z 12009KT 36/15 A2988 RMK A01 T03620147  RH  028%=      5-min Rain = 0
KCA2 130447Z 12010KT 36/15 A2988 RMK A01 T03620147  RH  028%=      5-min Rain = 0
KCA2 130448Z 11010KT 36/15 A2988 RMK A01 T03620147  RH  028%=      5-min Rain = 0
KCA2 130449Z 13010KT 36/15 A2988 RMK A01 T03620147  RH  028%=      5-min Rain = 0
KCA2 130450Z 12010KT 36/15 A2988 RMK A01 T03620147  RH  028%=      5-min Rain = 0
KCA2 130451Z 12010KT 36/15 A2988 RMK A01 T03620146  RH  028%=      5-min Rain = 0
KCA2 130452Z 12009KT 36/15 A2988 RMK A01 T03610145  RH  028%=      5-min Rain = 0
KCA2 130453Z 13008KT 36/15 A2988 RMK A01 T03620146  RH  028%=      5-min Rain = 0
KCA2 130454Z 13009KT 36/15 A2988 RMK A01 T03620146  RH  028%=      5-min Rain = 0
KCA2 130455Z 12009KT 36/15 A2988 RMK A01 T03610146  RH  028%=      5-min Rain = 0
KCA2 130456Z 12010KT 36/15 A2988 RMK A01 T03610146  RH  028%=      5-min Rain = 0
KCA2 130457Z 12009KT 36/15 A2988 RMK A01 T03610146  RH  028%=      5-min Rain = 0
KCA2 130458Z 13009KT 36/15 A2988 RMK A01 T03610146  RH  028%=      5-min Rain = 0
KCA2 130459Z 13007KT 36/15 A2988 RMK A01 T03610146  RH  028%=      5-min Rain = 0

Page generated in 0.0727 seconds.